Time,TemperatureF,DewpointF,PressureIn,WindDirection,WindDirectionDegrees,WindSpeedMPH,WindSpeedGustMPH,Humidity,HourlyPrecipIn,Conditions,Clouds,dailyrainin,SoftwareType,DateUTC
2013-01-12 00:00:00,57.0,46.2,28.94,South,182,8.7,8.7,67,0.00,,,0.00,VWS V13.01,2013-01-12 06:00:00,
2013-01-12 00:01:00,57.2,43.9,28.94,South,189,10.1,10.1,61,0.00,,,0.00,VWS V13.01,2013-01-12 06:01:00,
2013-01-12 00:02:00,57.2,43.9,28.94,South,189,11.0,11.0,61,0.00,,,0.00,VWS V13.01,2013-01-12 06:02:00,
2013-01-12 00:03:00,57.7,44.4,28.94,SSW,212,10.5,10.5,61,0.00,,,0.00,VWS V13.01,2013-01-12 06:03:00,
2013-01-12 00:04:00,57.7,44.4,28.94,SSW,194,10.1,10.1,61,0.00,,,0.00,VWS V13.01,2013-01-12 06:04:00,
2013-01-12 00:05:00,57.9,44.6,28.94,SSW,205,8.7,8.7,61,0.00,,,0.00,VWS V13.01,2013-01-12 06:05:00,
2013-01-12 00:06:00,58.3,44.9,28.94,SSW,208,8.7,8.7,61,0.00,,,0.00,VWS V13.01,2013-01-12 06:06:00,
2013-01-12 00:07:00,58.3,44.9,28.94,South,188,8.3,8.3,61,0.00,,,0.00,VWS V13.01,2013-01-12 06:07:00,
2013-01-12 00:08:00,58.5,45.1,28.94,SSW,195,10.1,10.1,61,0.00,,,0.00,VWS V13.01,2013-01-12 06:08:00,
2013-01-12 00:09:00,58.5,45.1,28.94,South,190,10.5,10.5,61,0.00,,,0.00,VWS V13.01,2013-01-12 06:09:00,
2013-01-12 00:10:00,58.8,45.4,28.94,South,184,8.7,8.7,61,0.00,,,0.00,VWS V13.01,2013-01-12 06:10:00,
2013-01-12 00:11:00,58.6,45.2,28.94,SSW,203,7.2,7.2,61,0.00,,,0.00,VWS V13.01,2013-01-12 06:11:00,
2013-01-12 00:12:00,58.6,45.2,28.94,South,186,12.3,12.3,61,0.00,,,0.00,VWS V13.01,2013-01-12 06:12:00,
2013-01-12 00:13:00,58.8,45.4,28.97,SSW,207,8.7,8.7,61,0.00,,,0.00,VWS V13.01,2013-01-12 06:13:00,
2013-01-12 00:14:00,58.8,45.4,28.97,South,187,12.8,12.8,61,0.00,,,0.00,VWS V13.01,2013-01-12 06:14:00,
2013-01-12 00:15:00,59.0,45.6,28.97,SSW,195,11.9,11.9,61,0.00,,,0.00,VWS V13.01,2013-01-12 06:15:00,
2013-01-12 00:16:00,58.6,45.2,28.97,SSW,195,8.3,8.3,61,0.00,,,0.00,VWS V13.01,2013-01-12 06:16:00,
2013-01-12 00:17:00,58.8,45.4,28.97,SSW,208,8.1,8.1,61,0.00,,,0.00,VWS V13.01,2013-01-12 06:17:00,
2013-01-12 00:18:00,58.6,45.2,28.97,SW,218,10.1,10.1,61,0.00,,,0.00,VWS V13.01,2013-01-12 06:18:00,
2013-01-12 00:19:00,58.5,45.1,28.97,SSW,210,8.7,8.7,61,0.00,,,0.00,VWS V13.01,2013-01-12 06:19:00,
2013-01-12 00:20:00,58.3,44.9,28.97,South,186,6.3,6.3,61,0.00,,,0.00,VWS V13.01,2013-01-12 06:20:00,
2013-01-12 00:21:00,58.6,45.2,28.97,SSW,208,8.7,8.7,61,0.00,,,0.00,VWS V13.01,2013-01-12 06:21:00,
2013-01-12 00:22:00,58.5,45.1,28.97,SSW,196,8.7,8.7,61,0.00,,,0.00,VWS V13.01,2013-01-12 06:22:00,
2013-01-12 00:23:00,58.5,45.1,28.97,SSW,197,7.6,7.6,61,0.00,,,0.00,VWS V13.01,2013-01-12 06:23:00,
2013-01-12 00:24:00,58.3,44.9,28.97,SSW,198,7.2,7.2,61,0.00,,,0.00,VWS V13.01,2013-01-12 06:24:00,
2013-01-12 00:25:00,58.3,44.9,28.97,South,188,5.8,5.8,61,0.00,,,0.00,VWS V13.01,2013-01-12 06:25:00,
2013-01-12 00:26:00,58.3,44.9,28.97,SSW,203,6.3,6.3,61,0.00,,,0.00,VWS V13.01,2013-01-12 06:26:00,
2013-01-12 00:27:00,58.5,45.1,28.97,SW,220,6.7,6.7,61,0.00,,,0.00,VWS V13.01,2013-01-12 06:27:00,
2013-01-12 00:28:00,58.6,45.2,28.97,SSW,209,8.7,8.7,61,0.00,,,0.00,VWS V13.01,2013-01-12 06:28:00,
2013-01-12 00:29:00,58.5,45.1,28.97,South,185,8.1,8.1,61,0.00,,,0.00,VWS V13.01,2013-01-12 06:29:00,
2013-01-12 00:30:00,58.3,44.9,28.97,SSW,207,7.6,7.6,61,0.00,,,0.00,VWS V13.01,2013-01-12 06:30:00,
2013-01-12 00:31:00,58.1,44.7,28.97,SSW,194,5.4,5.4,61,0.00,,,0.00,VWS V13.01,2013-01-12 06:31:00,
2013-01-12 00:32:00,57.9,44.6,28.97,South,186,8.3,8.3,61,0.00,,,0.00,VWS V13.01,2013-01-12 06:32:00,
2013-01-12 00:33:00,57.9,44.6,28.97,SSW,193,10.5,10.5,61,0.00,,,0.00,VWS V13.01,2013-01-12 06:33:00,
2013-01-12 00:34:00,58.1,44.7,28.97,South,182,8.1,8.1,61,0.00,,,0.00,VWS V13.01,2013-01-12 06:34:00,
2013-01-12 00:35:00,57.9,44.6,28.97,SSW,207,6.3,6.3,61,0.00,,,0.00,VWS V13.01,2013-01-12 06:35:00,
2013-01-12 00:36:00,58.3,44.9,28.97,SW,216,4.9,4.9,61,0.00,,,0.00,VWS V13.01,2013-01-12 06:36:00,
2013-01-12 00:37:00,57.9,44.6,28.97,SSW,192,7.6,7.6,61,0.00,,,0.00,VWS V13.01,2013-01-12 06:37:00,
2013-01-12 00:38:00,57.9,44.6,28.97,SW,218,7.6,7.6,61,0.00,,,0.00,VWS V13.01,2013-01-12 06:38:00,
2013-01-12 00:39:00,57.7,44.4,28.97,SSW,196,6.3,6.3,61,0.00,,,0.00,VWS V13.01,2013-01-12 06:39:00,
2013-01-12 00:40:00,57.7,44.4,28.97,SSW,213,8.1,8.1,61,0.00,,,0.00,VWS V13.01,2013-01-12 06:40:00,
2013-01-12 00:41:00,57.7,44.4,28.97,SSW,212,6.3,6.3,61,0.00,,,0.00,VWS V13.01,2013-01-12 06:41:00,
2013-01-12 00:42:00,57.6,44.2,28.97,SW,214,5.4,5.4,61,0.00,,,0.00,VWS V13.01,2013-01-12 06:42:00,
2013-01-12 00:43:00,57.6,44.2,28.97,SSW,202,7.6,7.6,61,0.00,,,0.00,VWS V13.01,2013-01-12 06:43:00,
2013-01-12 00:44:00,57.6,44.2,28.97,SW,223,7.2,7.2,61,0.00,,,0.00,VWS V13.01,2013-01-12 06:44:00,
2013-01-12 00:45:00,57.6,44.2,28.97,SSW,213,7.6,7.6,61,0.00,,,0.00,VWS V13.01,2013-01-12 06:45:00,
2013-01-12 00:46:00,57.6,44.2,28.97,SW,221,6.3,6.3,61,0.00,,,0.00,VWS V13.01,2013-01-12 06:46:00,
2013-01-12 00:47:00,57.4,44.1,28.97,SW,229,5.4,5.4,61,0.00,,,0.00,VWS V13.01,2013-01-12 06:47:00,
2013-01-12 00:48:00,57.4,44.1,28.97,SW,229,5.4,5.4,61,0.00,,,0.00,VWS V13.01,2013-01-12 06:48:00,
2013-01-12 00:49:00,57.0,46.2,28.97,SSW,200,7.2,7.2,67,0.00,,,0.00,VWS V13.01,2013-01-12 06:49:00,
2013-01-12 00:50:00,57.2,43.9,28.97,South,190,5.8,5.8,61,0.00,,,0.00,VWS V13.01,2013-01-12 06:50:00,
2013-01-12 00:51:00,57.0,46.2,28.97,SW,228,3.6,3.6,67,0.00,,,0.00,VWS V13.01,2013-01-12 06:51:00,
2013-01-12 00:52:00,56.8,46.0,28.97,SW,233,8.1,8.1,67,0.00,,,0.00,VWS V13.01,2013-01-12 06:52:00,
2013-01-12 00:53:00,57.0,46.2,28.97,WSW,237,7.6,7.6,67,0.00,,,0.00,VWS V13.01,2013-01-12 06:53:00,
2013-01-12 00:54:00,56.7,45.8,28.97,SSW,213,2.7,2.7,67,0.00,,,0.00,VWS V13.01,2013-01-12 06:54:00,
2013-01-12 00:55:00,56.5,45.7,28.97,South,187,4.0,4.0,67,0.00,,,0.00,VWS V13.01,2013-01-12 06:55:00,
2013-01-12 00:56:00,56.5,45.7,28.97,SW,223,3.6,3.6,67,0.00,,,0.00,VWS V13.01,2013-01-12 06:56:00,
2013-01-12 00:57:00,56.5,45.7,28.97,SW,233,5.4,5.4,67,0.00,,,0.00,VWS V13.01,2013-01-12 06:57:00,
2013-01-12 00:58:00,56.7,45.8,29.00,SSW,206,5.8,5.8,67,0.00,,,0.00,VWS V13.01,2013-01-12 06:58:00,
2013-01-12 00:59:00,56.5,45.7,29.00,SW,231,6.3,6.3,67,0.00,,,0.00,VWS V13.01,2013-01-12 06:59:00,
2013-01-12 01:00:00,56.5,45.7,29.00,SSW,206,4.0,4.0,67,0.00,,,0.00,VWS V13.01,2013-01-12 07:00:00,
2013-01-12 01:01:00,56.1,45.3,29.00,SW,232,5.4,5.4,67,0.00,,,0.00,VWS V13.01,2013-01-12 07:01:00,
2013-01-12 01:02:00,56.1,45.3,29.00,SW,229,5.8,5.8,67,0.00,,,0.00,VWS V13.01,2013-01-12 07:02:00,
2013-01-12 01:03:00,56.5,45.7,29.00,South,181,4.0,4.0,67,0.00,,,0.00,VWS V13.01,2013-01-12 07:03:00,
2013-01-12 01:04:00,56.1,45.3,29.00,SW,221,3.1,3.1,67,0.00,,,0.00,VWS V13.01,2013-01-12 07:04:00,
2013-01-12 01:05:00,56.1,45.3,29.00,SSW,210,3.1,3.1,67,0.00,,,0.00,VWS V13.01,2013-01-12 07:05:00,
2013-01-12 01:06:00,55.9,45.2,29.00,SSW,193,3.6,3.6,67,0.00,,,0.00,VWS V13.01,2013-01-12 07:06:00,
2013-01-12 01:07:00,55.8,45.0,29.00,SW,228,3.1,3.1,67,0.00,,,0.00,VWS V13.01,2013-01-12 07:07:00,
2013-01-12 01:08:00,55.8,45.0,29.00,SW,218,3.6,3.6,67,0.00,,,0.00,VWS V13.01,2013-01-12 07:08:00,
2013-01-12 01:09:00,55.6,44.8,29.00,SW,232,3.1,3.1,67,0.00,,,0.00,VWS V13.01,2013-01-12 07:09:00,
2013-01-12 01:10:00,55.6,44.8,29.00,SW,232,2.7,2.7,67,0.00,,,0.00,VWS V13.01,2013-01-12 07:10:00,
2013-01-12 01:11:00,55.6,44.8,29.00,West,260,5.8,5.8,67,0.00,,,0.00,VWS V13.01,2013-01-12 07:11:00,
2013-01-12 01:12:00,55.6,44.8,29.00,SW,229,2.7,2.7,67,0.00,,,0.00,VWS V13.01,2013-01-12 07:12:00,
2013-01-12 01:13:00,55.2,44.5,29.00,SW,235,0.0,0.0,67,0.00,,,0.00,VWS V13.01,2013-01-12 07:13:00,
2013-01-12 01:14:00,55.2,44.5,29.00,West,263,3.6,3.6,67,0.00,,,0.00,VWS V13.01,2013-01-12 07:14:00,
2013-01-12 01:15:00,55.2,44.5,29.00,West,263,0.0,0.0,67,0.00,,,0.00,VWS V13.01,2013-01-12 07:15:00,
2013-01-12 01:16:00,55.0,44.3,29.00,SW,232,0.0,0.0,67,0.00,,,0.00,VWS V13.01,2013-01-12 07:16:00,
2013-01-12 01:17:00,55.0,44.3,29.00,WSW,239,2.7,2.7,67,0.00,,,0.00,VWS V13.01,2013-01-12 07:17:00,
2013-01-12 01:18:00,54.9,44.1,29.00,NW,304,5.8,5.8,67,0.00,,,0.00,VWS V13.01,2013-01-12 07:18:00,
2013-01-12 01:19:00,54.9,44.1,29.00,WSW,253,2.7,2.7,67,0.00,,,0.00,VWS V13.01,2013-01-12 07:19:00,
2013-01-12 01:20:00,54.9,44.1,29.00,WSW,240,5.8,5.8,67,0.00,,,0.00,VWS V13.01,2013-01-12 07:20:00,
2013-01-12 01:21:00,54.7,44.0,29.00,SW,224,0.0,0.0,67,0.00,,,0.00,VWS V13.01,2013-01-12 07:21:00,
2013-01-12 01:22:00,54.5,43.8,29.00,SW,222,2.7,2.7,67,0.00,,,0.00,VWS V13.01,2013-01-12 07:22:00,
2013-01-12 01:23:00,54.9,44.1,29.00,WSW,242,5.4,5.4,67,0.00,,,0.00,VWS V13.01,2013-01-12 07:23:00,
2013-01-12 01:24:00,55.0,44.3,29.00,SW,231,5.8,5.8,67,0.00,,,0.00,VWS V13.01,2013-01-12 07:24:00,
2013-01-12 01:25:00,55.0,44.3,29.00,West,271,8.1,8.1,67,0.00,,,0.00,VWS V13.01,2013-01-12 07:25:00,
2013-01-12 01:26:00,54.9,44.1,29.00,West,265,5.4,5.4,67,0.00,,,0.00,VWS V13.01,2013-01-12 07:26:00,
2013-01-12 01:27:00,54.9,44.1,29.00,West,259,7.6,7.6,67,0.00,,,0.00,VWS V13.01,2013-01-12 07:27:00,
2013-01-12 01:28:00,55.0,44.3,29.00,WSW,254,3.6,3.6,67,0.00,,,0.00,VWS V13.01,2013-01-12 07:28:00,
2013-01-12 01:29:00,55.0,44.3,29.00,West,271,8.1,8.1,67,0.00,,,0.00,VWS V13.01,2013-01-12 07:29:00,
2013-01-12 01:30:00,55.0,44.3,29.00,West,265,5.8,5.8,67,0.00,,,0.00,VWS V13.01,2013-01-12 07:30:00,
2013-01-12 01:31:00,54.5,43.8,29.00,SW,224,3.1,3.1,67,0.00,,,0.00,VWS V13.01,2013-01-12 07:31:00,
2013-01-12 01:32:00,54.5,43.8,29.00,West,273,8.1,8.1,67,0.00,,,0.00,VWS V13.01,2013-01-12 07:32:00,
2013-01-12 01:33:00,54.3,43.6,29.00,SW,221,2.7,2.7,67,0.00,,,0.00,VWS V13.01,2013-01-12 07:33:00,
2013-01-12 01:34:00,54.3,43.6,29.00,South,183,4.9,4.9,67,0.00,,,0.00,VWS V13.01,2013-01-12 07:34:00,
2013-01-12 01:35:00,54.1,43.4,29.00,SW,235,6.3,6.3,67,0.00,,,0.00,VWS V13.01,2013-01-12 07:35:00,
2013-01-12 01:36:00,54.3,43.6,29.00,WNW,291,3.6,3.6,67,0.00,,,0.00,VWS V13.01,2013-01-12 07:36:00,
2013-01-12 01:37:00,54.3,43.6,29.00,WSW,254,4.9,4.9,67,0.00,,,0.00,VWS V13.01,2013-01-12 07:37:00,
2013-01-12 01:38:00,54.1,43.4,29.00,SW,215,4.9,4.9,67,0.00,,,0.00,VWS V13.01,2013-01-12 07:38:00,
2013-01-12 01:39:00,54.1,43.4,29.00,WSW,241,5.8,5.8,67,0.00,,,0.00,VWS V13.01,2013-01-12 07:39:00,
2013-01-12 01:40:00,54.1,43.4,29.00,West,268,6.3,6.3,67,0.00,,,0.00,VWS V13.01,2013-01-12 07:40:00,
2013-01-12 01:41:00,54.1,43.4,29.00,West,261,7.6,7.6,67,0.00,,,0.00,VWS V13.01,2013-01-12 07:41:00,
2013-01-12 01:42:00,54.0,43.3,29.00,SW,223,4.5,4.5,67,0.00,,,0.00,VWS V13.01,2013-01-12 07:42:00,
2013-01-12 01:43:00,53.8,43.1,29.03,WSW,239,5.4,5.4,67,0.00,,,0.00,VWS V13.01,2013-01-12 07:43:00,
2013-01-12 01:44:00,54.0,43.3,29.03,WSW,248,10.1,10.1,67,0.00,,,0.00,VWS V13.01,2013-01-12 07:44:00,
2013-01-12 01:45:00,54.0,43.3,29.03,West,276,4.0,4.0,67,0.00,,,0.00,VWS V13.01,2013-01-12 07:45:00,
2013-01-12 01:46:00,53.6,42.9,29.03,West,265,0.0,0.0,67,0.00,,,0.00,VWS V13.01,2013-01-12 07:46:00,
2013-01-12 01:47:00,53.4,45.0,29.03,West,266,3.1,3.1,73,0.00,,,0.00,VWS V13.01,2013-01-12 07:47:00,
2013-01-12 01:48:00,53.4,45.0,29.03,WSW,250,3.6,3.6,73,0.00,,,0.00,VWS V13.01,2013-01-12 07:48:00,
2013-01-12 01:49:00,53.2,44.8,29.03,WSW,257,5.8,5.8,73,0.00,,,0.00,VWS V13.01,2013-01-12 07:49:00,
2013-01-12 01:50:00,53.2,44.8,29.03,West,271,3.6,3.6,73,0.00,,,0.00,VWS V13.01,2013-01-12 07:50:00,
2013-01-12 01:51:00,53.1,44.7,29.03,SW,230,5.8,5.8,73,0.00,,,0.00,VWS V13.01,2013-01-12 07:51:00,
2013-01-12 01:52:00,53.1,44.7,29.03,West,266,6.3,6.3,73,0.00,,,0.00,VWS V13.01,2013-01-12 07:52:00,
2013-01-12 01:53:00,53.1,44.7,29.03,West,277,5.8,5.8,73,0.00,,,0.00,VWS V13.01,2013-01-12 07:53:00,
2013-01-12 01:54:00,53.1,44.7,29.03,West,263,8.3,8.3,73,0.00,,,0.00,VWS V13.01,2013-01-12 07:54:00,
2013-01-12 01:55:00,53.1,44.7,29.03,West,271,2.7,2.7,73,0.00,,,0.00,VWS V13.01,2013-01-12 07:55:00,
2013-01-12 01:56:00,52.9,44.5,29.03,WNW,282,6.3,6.3,73,0.00,,,0.00,VWS V13.01,2013-01-12 07:56:00,
2013-01-12 01:57:00,52.9,44.5,29.03,SW,234,0.0,0.0,73,0.00,,,0.00,VWS V13.01,2013-01-12 07:57:00,
2013-01-12 01:58:00,52.5,44.1,29.03,West,269,2.7,2.7,73,0.00,,,0.00,VWS V13.01,2013-01-12 07:58:00,
2013-01-12 01:59:00,52.5,44.1,29.03,WSW,255,3.1,3.1,73,0.00,,,0.00,VWS V13.01,2013-01-12 07:59:00,
2013-01-12 02:00:00,52.5,44.1,29.03,West,274,5.4,5.4,73,0.00,,,0.00,VWS V13.01,2013-01-12 08:00:00,
2013-01-12 02:01:00,52.3,44.0,29.03,West,269,0.0,0.0,73,0.00,,,0.00,VWS V13.01,2013-01-12 08:01:00,
2013-01-12 02:02:00,52.3,44.0,29.03,West,279,4.0,4.0,73,0.00,,,0.00,VWS V13.01,2013-01-12 08:02:00,
2013-01-12 02:03:00,52.3,44.0,29.03,West,267,3.1,3.1,73,0.00,,,0.00,VWS V13.01,2013-01-12 08:03:00,
2013-01-12 02:04:00,52.3,44.0,29.03,West,267,0.0,0.0,73,0.00,,,0.00,VWS V13.01,2013-01-12 08:04:00,
2013-01-12 02:05:00,52.2,43.8,29.03,SW,235,2.7,2.7,73,0.00,,,0.00,VWS V13.01,2013-01-12 08:05:00,
2013-01-12 02:06:00,52.2,43.8,29.03,West,266,0.0,0.0,73,0.00,,,0.00,VWS V13.01,2013-01-12 08:06:00,
2013-01-12 02:07:00,52.0,43.6,29.03,West,264,0.0,0.0,73,0.00,,,0.00,VWS V13.01,2013-01-12 08:07:00,
2013-01-12 02:08:00,52.0,43.6,29.03,WNW,287,0.0,0.0,73,0.00,,,0.00,VWS V13.01,2013-01-12 08:08:00,
2013-01-12 02:09:00,52.0,43.6,29.03,West,263,0.0,0.0,73,0.00,,,0.00,VWS V13.01,2013-01-12 08:09:00,
2013-01-12 02:10:00,51.8,43.4,29.03,SW,226,3.1,3.1,73,0.00,,,0.00,VWS V13.01,2013-01-12 08:10:00,
2013-01-12 02:11:00,51.8,43.4,29.03,West,261,2.7,2.7,73,0.00,,,0.00,VWS V13.01,2013-01-12 08:11:00,
2013-01-12 02:12:00,51.6,43.3,29.03,West,261,3.1,3.1,73,0.00,,,0.00,VWS V13.01,2013-01-12 08:12:00,
2013-01-12 02:13:00,51.6,43.3,29.06,WSW,253,3.6,3.6,73,0.00,,,0.00,VWS V13.01,2013-01-12 08:13:00,
2013-01-12 02:14:00,51.6,43.3,29.06,SW,232,4.0,4.0,73,0.00,,,0.00,VWS V13.01,2013-01-12 08:14:00,
2013-01-12 02:15:00,51.4,43.1,29.06,West,261,4.0,4.0,73,0.00,,,0.00,VWS V13.01,2013-01-12 08:15:00,
2013-01-12 02:16:00,51.6,43.3,29.06,WSW,250,5.4,5.4,73,0.00,,,0.00,VWS V13.01,2013-01-12 08:16:00,
2013-01-12 02:17:00,51.6,43.3,29.06,West,263,2.7,2.7,73,0.00,,,0.00,VWS V13.01,2013-01-12 08:17:00,
2013-01-12 02:18:00,51.4,43.1,29.06,WSW,254,8.1,8.1,73,0.00,,,0.00,VWS V13.01,2013-01-12 08:18:00,
2013-01-12 02:19:00,51.3,42.9,29.06,WSW,239,2.7,2.7,73,0.00,,,0.00,VWS V13.01,2013-01-12 08:19:00,
2013-01-12 02:20:00,51.1,42.7,29.06,WSW,238,2.2,2.2,73,0.00,,,0.00,VWS V13.01,2013-01-12 08:20:00,
2013-01-12 02:21:00,51.1,42.7,29.06,WNW,284,3.6,3.6,73,0.00,,,0.00,VWS V13.01,2013-01-12 08:21:00,
2013-01-12 02:22:00,50.7,42.4,29.06,West,270,0.0,0.0,73,0.00,,,0.00,VWS V13.01,2013-01-12 08:22:00,
2013-01-12 02:23:00,50.7,42.4,29.06,WSW,255,5.4,5.4,73,0.00,,,0.00,VWS V13.01,2013-01-12 08:23:00,
2013-01-12 02:24:00,50.7,42.4,29.06,West,261,3.1,3.1,73,0.00,,,0.00,VWS V13.01,2013-01-12 08:24:00,
2013-01-12 02:25:00,50.7,42.4,29.06,WSW,257,2.7,2.7,73,0.00,,,0.00,VWS V13.01,2013-01-12 08:25:00,
2013-01-12 02:26:00,50.7,42.4,29.06,WNW,293,5.8,5.8,73,0.00,,,0.00,VWS V13.01,2013-01-12 08:26:00,
2013-01-12 02:27:00,50.5,42.2,29.06,West,265,0.0,0.0,73,0.00,,,0.00,VWS V13.01,2013-01-12 08:27:00,
2013-01-12 02:28:00,50.4,42.0,29.06,WSW,252,0.0,0.0,73,0.00,,,0.00,VWS V13.01,2013-01-12 08:28:00,
2013-01-12 02:29:00,50.2,41.9,29.06,West,259,2.7,2.7,73,0.00,,,0.00,VWS V13.01,2013-01-12 08:29:00,
2013-01-12 02:30:00,50.2,41.9,29.06,WSW,257,3.6,3.6,73,0.00,,,0.00,VWS V13.01,2013-01-12 08:30:00,
2013-01-12 02:31:00,50.4,42.0,29.06,West,262,4.0,4.0,73,0.00,,,0.00,VWS V13.01,2013-01-12 08:31:00,
2013-01-12 02:32:00,50.4,42.0,29.06,West,264,2.7,2.7,73,0.00,,,0.00,VWS V13.01,2013-01-12 08:32:00,
2013-01-12 02:33:00,50.4,42.0,29.06,WSW,251,3.1,3.1,73,0.00,,,0.00,VWS V13.01,2013-01-12 08:33:00,
2013-01-12 02:34:00,50.4,42.0,29.06,WSW,238,2.7,2.7,73,0.00,,,0.00,VWS V13.01,2013-01-12 08:34:00,
2013-01-12 02:35:00,50.2,41.9,29.06,WNW,295,3.1,3.1,73,0.00,,,0.00,VWS V13.01,2013-01-12 08:35:00,
2013-01-12 02:36:00,50.2,41.9,29.06,WNW,289,0.0,0.0,73,0.00,,,0.00,VWS V13.01,2013-01-12 08:36:00,
2013-01-12 02:37:00,50.4,42.0,29.06,WSW,251,3.1,3.1,73,0.00,,,0.00,VWS V13.01,2013-01-12 08:37:00,
2013-01-12 02:38:00,50.4,42.0,29.06,West,260,4.9,4.9,73,0.00,,,0.00,VWS V13.01,2013-01-12 08:38:00,
2013-01-12 02:39:00,50.4,42.0,29.06,WSW,253,3.1,3.1,73,0.00,,,0.00,VWS V13.01,2013-01-12 08:39:00,
2013-01-12 02:40:00,50.2,41.9,29.06,WSW,252,2.7,2.7,73,0.00,,,0.00,VWS V13.01,2013-01-12 08:40:00,
2013-01-12 02:41:00,50.2,41.9,29.06,West,264,4.5,4.5,73,0.00,,,0.00,VWS V13.01,2013-01-12 08:41:00,
2013-01-12 02:42:00,50.2,41.9,29.06,West,266,2.7,2.7,73,0.00,,,0.00,VWS V13.01,2013-01-12 08:42:00,
2013-01-12 02:43:00,50.2,41.9,29.06,West,275,3.6,3.6,73,0.00,,,0.00,VWS V13.01,2013-01-12 08:43:00,
2013-01-12 02:44:00,50.0,41.7,29.06,West,270,4.0,4.0,73,0.00,,,0.00,VWS V13.01,2013-01-12 08:44:00,
2013-01-12 02:45:00,50.0,41.7,29.06,WSW,255,0.0,0.0,73,0.00,,,0.00,VWS V13.01,2013-01-12 08:45:00,
2013-01-12 02:46:00,50.0,41.7,29.06,WSW,255,0.0,0.0,73,0.00,,,0.00,VWS V13.01,2013-01-12 08:46:00,
2013-01-12 02:47:00,49.8,41.5,29.06,West,265,0.0,0.0,73,0.00,,,0.00,VWS V13.01,2013-01-12 08:47:00,
2013-01-12 02:48:00,49.8,41.5,29.06,West,265,0.0,0.0,73,0.00,,,0.00,VWS V13.01,2013-01-12 08:48:00,
2013-01-12 02:49:00,49.6,41.3,29.06,WNW,292,2.2,2.2,73,0.00,,,0.00,VWS V13.01,2013-01-12 08:49:00,
2013-01-12 02:50:00,49.6,41.3,29.06,West,278,0.0,0.0,73,0.00,,,0.00,VWS V13.01,2013-01-12 08:50:00,
2013-01-12 02:51:00,49.5,41.2,29.06,West,274,0.0,0.0,73,0.00,,,0.00,VWS V13.01,2013-01-12 08:51:00,
2013-01-12 02:52:00,49.3,41.0,29.06,West,265,4.5,4.5,73,0.00,,,0.00,VWS V13.01,2013-01-12 08:52:00,
2013-01-12 02:53:00,49.3,41.0,29.06,WSW,249,0.0,0.0,73,0.00,,,0.00,VWS V13.01,2013-01-12 08:53:00,
2013-01-12 02:54:00,49.1,40.8,29.06,West,276,0.0,0.0,73,0.00,,,0.00,VWS V13.01,2013-01-12 08:54:00,
2013-01-12 02:55:00,49.1,40.8,29.06,West,276,0.0,0.0,73,0.00,,,0.00,VWS V13.01,2013-01-12 08:55:00,
2013-01-12 02:56:00,48.9,40.7,29.06,West,276,0.0,0.0,73,0.00,,,0.00,VWS V13.01,2013-01-12 08:56:00,
2013-01-12 02:57:00,48.9,40.7,29.09,West,260,4.0,4.0,73,0.00,,,0.00,VWS V13.01,2013-01-12 08:57:00,
2013-01-12 02:58:00,48.9,40.7,29.09,West,276,4.0,4.0,73,0.00,,,0.00,VWS V13.01,2013-01-12 08:58:00,
2013-01-12 02:59:00,48.9,40.7,29.09,West,264,3.1,3.1,73,0.00,,,0.00,VWS V13.01,2013-01-12 08:59:00,
2013-01-12 03:00:00,48.9,40.7,29.09,WNW,301,4.0,4.0,73,0.00,,,0.00,VWS V13.01,2013-01-12 09:00:00,
2013-01-12 03:01:00,48.9,40.7,29.09,West,280,3.1,3.1,73,0.00,,,0.00,VWS V13.01,2013-01-12 09:01:00,
2013-01-12 03:02:00,48.7,40.5,29.09,West,280,0.0,0.0,73,0.00,,,0.00,VWS V13.01,2013-01-12 09:02:00,
2013-01-12 03:03:00,48.7,40.5,29.09,West,277,4.0,4.0,73,0.00,,,0.00,VWS V13.01,2013-01-12 09:03:00,
2013-01-12 03:04:00,48.7,40.5,29.09,WNW,292,2.7,2.7,73,0.00,,,0.00,VWS V13.01,2013-01-12 09:04:00,
2013-01-12 03:05:00,48.7,40.5,29.09,West,276,2.7,2.7,73,0.00,,,0.00,VWS V13.01,2013-01-12 09:05:00,
2013-01-12 03:06:00,48.7,40.5,29.09,WNW,289,4.0,4.0,73,0.00,,,0.00,VWS V13.01,2013-01-12 09:06:00,
2013-01-12 03:07:00,48.7,40.5,29.09,West,267,3.6,3.6,73,0.00,,,0.00,VWS V13.01,2013-01-12 09:07:00,
2013-01-12 03:08:00,48.7,40.5,29.09,West,277,6.3,6.3,73,0.00,,,0.00,VWS V13.01,2013-01-12 09:08:00,
2013-01-12 03:09:00,48.6,40.3,29.09,WNW,297,2.2,2.2,73,0.00,,,0.00,VWS V13.01,2013-01-12 09:09:00,
2013-01-12 03:10:00,48.6,40.3,29.09,WNW,298,0.0,0.0,73,0.00,,,0.00,VWS V13.01,2013-01-12 09:10:00,
2013-01-12 03:11:00,48.6,40.3,29.09,WNW,294,5.4,5.4,73,0.00,,,0.00,VWS V13.01,2013-01-12 09:11:00,
2013-01-12 03:12:00,48.4,40.1,29.09,WNW,293,0.0,0.0,73,0.00,,,0.00,VWS V13.01,2013-01-12 09:12:00,
2013-01-12 03:13:00,48.4,40.1,29.06,NW,310,2.7,2.7,73,0.00,,,0.00,VWS V13.01,2013-01-12 09:13:00,
2013-01-12 03:14:00,48.6,40.3,29.06,West,278,7.2,7.2,73,0.00,,,0.00,VWS V13.01,2013-01-12 09:14:00,
2013-01-12 03:15:00,48.6,40.3,29.06,NNW,329,5.8,5.8,73,0.00,,,0.00,VWS V13.01,2013-01-12 09:15:00,
2013-01-12 08:24:00,30.7,26.8,29.21,NW,309,5.4,5.4,85,0.00,,,0.00,VWS V13.01,2013-01-12 14:24:00,
2013-01-12 08:29:00,31.1,27.1,29.23,NNW,329,3.1,3.1,85,0.00,,,0.00,VWS V13.01,2013-01-12 14:29:00,
2013-01-12 08:34:00,30.9,27.0,29.23,NW,312,7.6,7.6,85,0.00,,,0.00,VWS V13.01,2013-01-12 14:34:00,
2013-01-12 08:35:00,30.9,27.0,29.23,North,357,6.3,6.3,85,0.00,,,0.00,VWS V13.01,2013-01-12 14:35:00,
2013-01-12 08:39:00,30.9,27.0,29.23,NW,325,8.1,8.1,85,0.00,,,0.00,VWS V13.01,2013-01-12 14:39:00,
2013-01-12 08:40:00,30.9,27.0,29.23,NW,325,9.6,9.6,85,0.00,,,0.00,VWS V13.01,2013-01-12 14:40:00,
2013-01-12 08:44:00,30.9,27.0,29.26,NW,312,6.3,6.3,85,0.00,,,0.00,VWS V13.01,2013-01-12 14:44:00,
2013-01-12 08:45:00,30.9,27.0,29.26,NW,312,6.3,6.3,85,0.00,,,0.00,VWS V13.01,2013-01-12 14:45:00,
2013-01-12 08:49:00,30.9,27.0,29.26,NNW,332,3.1,3.1,85,0.00,,,0.00,VWS V13.01,2013-01-12 14:49:00,
2013-01-12 08:50:00,30.9,27.0,29.26,NNW,332,3.1,3.1,85,0.00,,,0.00,VWS V13.01,2013-01-12 14:50:00,
2013-01-12 08:54:00,31.1,27.1,29.26,North,357,4.0,4.0,85,0.00,,,0.00,VWS V13.01,2013-01-12 14:54:00,
2013-01-12 08:55:00,31.1,27.1,29.26,North,357,4.0,4.0,85,0.00,,,0.00,VWS V13.01,2013-01-12 14:55:00,
2013-01-12 09:00:00,30.9,27.0,29.26,NW,317,5.4,5.4,85,0.00,,,0.00,VWS V13.01,2013-01-12 15:00:00,
2013-01-12 09:05:00,30.6,26.6,29.26,NW,306,6.3,6.3,85,0.00,,,0.00,VWS V13.01,2013-01-12 15:05:00,
2013-01-12 09:10:00,30.7,26.8,29.26,NNW,330,5.8,5.8,85,0.00,,,0.00,VWS V13.01,2013-01-12 15:10:00,
2013-01-12 09:15:00,30.7,26.8,29.29,NW,309,5.4,5.4,85,0.00,,,0.00,VWS V13.01,2013-01-12 15:15:00,
2013-01-12 09:20:00,31.3,27.3,29.29,West,281,2.7,2.7,85,0.00,,,0.00,VWS V13.01,2013-01-12 15:20:00,
2013-01-12 09:25:00,31.3,27.3,29.29,NW,312,4.0,4.0,85,0.00,,,0.00,VWS V13.01,2013-01-12 15:25:00,
2013-01-12 09:30:00,30.9,27.0,29.29,NW,321,5.4,5.4,85,0.00,,,0.00,VWS V13.01,2013-01-12 15:30:00,
2013-01-12 09:35:00,30.7,26.8,29.29,NW,316,8.1,8.1,85,0.00,,,0.00,VWS V13.01,2013-01-12 15:35:00,
2013-01-12 09:40:00,30.7,26.8,29.29,NW,319,2.7,2.7,85,0.00,,,0.00,VWS V13.01,2013-01-12 15:40:00,
2013-01-12 09:45:00,31.1,27.1,29.29,NW,319,9.2,9.2,85,0.00,,,0.00,VWS V13.01,2013-01-12 15:45:00,
2013-01-12 09:50:00,31.1,27.1,29.29,NW,320,8.1,8.1,85,0.00,,,0.00,VWS V13.01,2013-01-12 15:50:00,
2013-01-12 09:55:00,31.1,27.1,29.29,WNW,291,4.0,4.0,85,0.00,,,0.00,VWS V13.01,2013-01-12 15:55:00,
2013-01-12 10:00:00,31.3,27.3,29.29,West,278,6.3,6.3,85,0.00,,,0.00,VWS V13.01,2013-01-12 16:00:00,
2013-01-12 10:01:00,31.1,27.1,29.29,NW,319,5.4,5.4,85,0.00,,,0.00,VWS V13.01,2013-01-12 16:01:00,
2013-01-12 10:05:00,31.6,27.7,29.29,NW,323,8.1,8.1,85,0.00,,,0.00,VWS V13.01,2013-01-12 16:05:00,
2013-01-12 10:06:00,31.6,27.7,29.29,NW,325,8.1,8.1,85,0.00,,,0.00,VWS V13.01,2013-01-12 16:06:00,
2013-01-12 10:10:00,31.8,27.8,29.29,NW,322,4.0,4.0,85,0.00,,,0.00,VWS V13.01,2013-01-12 16:10:00,
2013-01-12 10:11:00,32.2,28.2,29.29,WNW,288,3.1,3.1,85,0.00,,,0.00,VWS V13.01,2013-01-12 16:11:00,
2013-01-12 10:15:00,32.7,28.7,29.29,North,11,3.6,3.6,85,0.00,,,0.00,VWS V13.01,2013-01-12 16:15:00,
2013-01-12 10:16:00,32.7,28.7,29.29,NW,317,6.3,6.3,85,0.00,,,0.00,VWS V13.01,2013-01-12 16:16:00,
2013-01-12 10:20:00,32.0,28.0,29.29,North,9,6.3,6.3,85,0.00,,,0.00,VWS V13.01,2013-01-12 16:20:00,
2013-01-12 10:21:00,31.8,27.8,29.29,NNW,331,10.1,10.1,85,0.00,,,0.00,VWS V13.01,2013-01-12 16:21:00,
2013-01-12 10:25:00,31.1,27.1,29.29,NNW,339,5.8,5.8,85,0.00,,,0.00,VWS V13.01,2013-01-12 16:25:00,
2013-01-12 10:26:00,30.9,27.0,29.29,NNW,328,5.4,5.4,85,0.00,,,0.00,VWS V13.01,2013-01-12 16:26:00,
2013-01-12 10:30:00,30.9,27.0,29.29,NNW,339,5.8,5.8,85,0.00,,,0.00,VWS V13.01,2013-01-12 16:30:00,
2013-01-12 10:31:00,30.9,27.0,29.29,North,353,5.4,5.4,85,0.00,,,0.00,VWS V13.01,2013-01-12 16:31:00,
2013-01-12 10:35:00,30.9,27.0,29.29,NNW,333,6.7,6.7,85,0.00,,,0.00,VWS V13.01,2013-01-12 16:35:00,
2013-01-12 10:36:00,30.7,26.8,29.29,NNW,338,8.7,8.7,85,0.00,,,0.00,VWS V13.01,2013-01-12 16:36:00,
2013-01-12 10:40:00,30.4,26.4,29.29,NNW,329,5.4,5.4,85,0.00,,,0.00,VWS V13.01,2013-01-12 16:40:00,
2013-01-12 10:41:00,30.4,26.4,29.29,NNW,336,4.0,4.0,85,0.00,,,0.00,VWS V13.01,2013-01-12 16:41:00,
2013-01-12 10:45:00,30.6,26.6,29.29,North,357,3.1,3.1,85,0.00,,,0.00,VWS V13.01,2013-01-12 16:45:00,
2013-01-12 10:46:00,30.7,26.8,29.29,North,3,3.1,3.1,85,0.00,,,0.00,VWS V13.01,2013-01-12 16:46:00,
2013-01-12 10:50:00,30.7,26.8,29.29,North,2,4.9,4.9,85,0.00,,,0.00,VWS V13.01,2013-01-12 16:50:00,
2013-01-12 10:51:00,30.6,26.6,29.29,NNW,329,3.1,3.1,85,0.00,,,0.00,VWS V13.01,2013-01-12 16:51:00,
2013-01-12 10:55:00,30.7,26.8,29.29,North,353,5.8,5.8,85,0.00,,,0.00,VWS V13.01,2013-01-12 16:55:00,
2013-01-12 10:56:00,30.7,26.8,29.29,NNW,346,6.3,6.3,85,0.00,,,0.00,VWS V13.01,2013-01-12 16:56:00,
2013-01-12 11:00:00,30.9,27.0,29.26,NNW,329,5.4,5.4,85,0.00,,,0.00,VWS V13.01,2013-01-12 17:00:00,
2013-01-12 11:01:00,30.9,27.0,29.26,NNW,333,5.4,5.4,85,0.00,,,0.00,VWS V13.01,2013-01-12 17:01:00,
2013-01-12 11:05:00,31.1,27.1,29.26,NNW,346,4.0,4.0,85,0.00,,,0.00,VWS V13.01,2013-01-12 17:05:00,
2013-01-12 11:06:00,31.1,27.1,29.26,NNE,24,2.7,2.7,85,0.00,,,0.00,VWS V13.01,2013-01-12 17:06:00,
2013-01-12 11:07:00,31.1,27.1,29.26,NNW,341,3.1,3.1,85,0.00,,,0.00,VWS V13.01,2013-01-12 17:07:00,
2013-01-12 11:10:00,31.1,27.1,29.26,NNW,335,6.3,6.3,85,0.00,,,0.00,VWS V13.01,2013-01-12 17:10:00,
2013-01-12 11:11:00,31.1,27.1,29.26,NNW,333,2.7,2.7,85,0.00,,,0.00,VWS V13.01,2013-01-12 17:11:00,
2013-01-12 11:12:00,31.1,27.1,29.26,NNW,338,4.0,4.0,85,0.00,,,0.00,VWS V13.01,2013-01-12 17:12:00,
2013-01-12 11:15:00,31.1,27.1,29.26,WNW,292,2.2,2.2,85,0.00,,,0.00,VWS V13.01,2013-01-12 17:15:00,
2013-01-12 11:16:00,31.1,27.1,29.26,North,8,4.9,4.9,85,0.00,,,0.00,VWS V13.01,2013-01-12 17:16:00,
2013-01-12 11:17:00,31.1,27.1,29.26,NW,306,7.2,7.2,85,0.00,,,0.00,VWS V13.01,2013-01-12 17:17:00,
2013-01-12 11:20:00,30.6,26.6,29.26,NNE,19,3.6,3.6,85,0.00,,,0.00,VWS V13.01,2013-01-12 17:20:00,
2013-01-12 11:21:00,30.6,26.6,29.26,North,6,3.6,3.6,85,0.00,,,0.00,VWS V13.01,2013-01-12 17:21:00,
2013-01-12 11:22:00,30.2,26.2,29.26,NNE,33,8.1,8.1,85,0.00,,,0.00,VWS V13.01,2013-01-12 17:22:00,
2013-01-12 11:25:00,29.5,25.5,29.26,NNE,29,6.3,6.3,85,0.00,,,0.00,VWS V13.01,2013-01-12 17:25:00,
2013-01-12 11:26:00,29.5,25.5,29.26,NNW,340,4.0,4.0,85,0.00,,,0.00,VWS V13.01,2013-01-12 17:26:00,
2013-01-12 11:27:00,29.5,25.5,29.26,North,10,5.4,5.4,85,0.00,,,0.00,VWS V13.01,2013-01-12 17:27:00,
2013-01-12 11:30:00,29.3,25.4,29.26,NNW,342,3.6,3.6,85,0.00,,,0.00,VWS V13.01,2013-01-12 17:30:00,
2013-01-12 11:31:00,29.3,25.4,29.26,NNW,342,3.6,3.6,85,0.00,,,0.00,VWS V13.01,2013-01-12 17:31:00,
2013-01-12 11:32:00,29.3,25.4,29.26,North,0,2.7,2.7,85,0.00,,,0.00,VWS V13.01,2013-01-12 17:32:00,
2013-01-12 11:35:00,29.3,25.4,29.26,North,353,3.6,3.6,85,0.00,,,0.00,VWS V13.01,2013-01-12 17:35:00,
2013-01-12 11:36:00,29.3,25.4,29.26,North,349,6.3,6.3,85,0.00,,,0.00,VWS V13.01,2013-01-12 17:36:00,
2013-01-12 11:37:00,29.3,25.4,29.26,NNW,343,2.7,2.7,85,0.00,,,0.00,VWS V13.01,2013-01-12 17:37:00,
2013-01-12 11:40:00,29.3,25.4,29.26,NNW,341,3.6,3.6,85,0.00,,,0.00,VWS V13.01,2013-01-12 17:40:00,
2013-01-12 11:42:00,28.9,25.0,29.26,NNE,15,5.4,5.4,85,0.00,,,0.00,VWS V13.01,2013-01-12 17:42:00,
2013-01-12 11:45:00,28.9,25.0,29.26,NNE,17,3.6,3.6,85,0.00,,,0.00,VWS V13.01,2013-01-12 17:45:00,
2013-01-12 11:47:00,29.1,25.2,29.26,North,7,5.8,5.8,85,0.00,,,0.00,VWS V13.01,2013-01-12 17:47:00,
2013-01-12 11:50:00,29.1,25.2,29.26,North,353,2.7,2.7,85,0.00,,,0.00,VWS V13.01,2013-01-12 17:50:00,
2013-01-12 11:52:00,28.9,25.0,29.26,North,1,7.6,7.6,85,0.00,,,0.00,VWS V13.01,2013-01-12 17:52:00,
2013-01-12 11:55:00,29.1,25.2,29.26,NW,319,5.4,5.4,85,0.00,,,0.00,VWS V13.01,2013-01-12 17:55:00,
2013-01-12 11:57:00,29.3,25.4,29.26,NNE,21,8.3,8.3,85,0.00,,,0.00,VWS V13.01,2013-01-12 17:57:00,
2013-01-12 12:00:00,30.0,26.1,29.23,North,353,4.9,4.9,85,0.00,,,0.00,VWS V13.01,2013-01-12 18:00:00,
2013-01-12 12:02:00,30.0,26.1,29.23,North,357,3.6,3.6,85,0.00,,,0.00,VWS V13.01,2013-01-12 18:02:00,
2013-01-12 12:06:00,30.4,26.4,29.23,North,7,2.7,2.7,85,0.00,,,0.00,VWS V13.01,2013-01-12 18:06:00,
2013-01-12 12:07:00,30.2,26.2,29.23,North,357,8.1,8.1,85,0.00,,,0.00,VWS V13.01,2013-01-12 18:07:00,
2013-01-12 12:11:00,30.0,26.1,29.23,NW,321,7.6,7.6,85,0.00,,,0.00,VWS V13.01,2013-01-12 18:11:00,
2013-01-12 12:12:00,30.0,26.1,29.23,NNW,331,7.6,7.6,85,0.00,,,0.00,VWS V13.01,2013-01-12 18:12:00,
2013-01-12 12:16:00,30.0,26.1,29.21,NNW,331,6.3,6.3,85,0.00,,,0.00,VWS V13.01,2013-01-12 18:16:00,
2013-01-12 12:17:00,30.2,26.2,29.21,NNW,329,5.8,5.8,85,0.00,,,0.00,VWS V13.01,2013-01-12 18:17:00,
2013-01-12 12:21:00,30.2,26.2,29.21,NE,36,4.0,4.0,85,0.00,,,0.00,VWS V13.01,2013-01-12 18:21:00,
2013-01-12 12:22:00,30.4,26.4,29.21,NNW,333,3.1,3.1,85,0.00,,,0.00,VWS V13.01,2013-01-12 18:22:00,
2013-01-12 12:26:00,30.4,26.4,29.21,North,5,8.1,8.1,85,0.00,,,0.00,VWS V13.01,2013-01-12 18:26:00,
2013-01-12 12:27:00,30.4,26.4,29.21,North,353,3.1,3.1,85,0.00,,,0.00,VWS V13.01,2013-01-12 18:27:00,
2013-01-12 12:31:00,30.6,26.6,29.23,NNW,343,2.2,2.2,85,0.00,,,0.00,VWS V13.01,2013-01-12 18:31:00,
2013-01-12 12:32:00,30.6,26.6,29.23,North,357,2.7,2.7,85,0.00,,,0.00,VWS V13.01,2013-01-12 18:32:00,
2013-01-12 12:36:00,30.9,27.0,29.23,North,1,3.1,3.1,85,0.00,,,0.00,VWS V13.01,2013-01-12 18:36:00,
2013-01-12 12:37:00,31.1,27.1,29.23,NNW,343,2.7,2.7,85,0.00,,,0.00,VWS V13.01,2013-01-12 18:37:00,
2013-01-12 12:41:00,31.1,27.1,29.23,NNW,335,4.9,4.9,85,0.00,,,0.00,VWS V13.01,2013-01-12 18:41:00,
2013-01-12 12:42:00,31.1,27.1,29.23,NNE,12,4.0,4.0,85,0.00,,,0.00,VWS V13.01,2013-01-12 18:42:00,
2013-01-12 12:46:00,30.6,26.6,29.23,NNW,331,7.6,7.6,85,0.00,,,0.00,VWS V13.01,2013-01-12 18:46:00,
2013-01-12 12:47:00,30.4,26.4,29.23,North,0,6.3,6.3,85,0.00,,,0.00,VWS V13.01,2013-01-12 18:47:00,
2013-01-12 12:51:00,29.7,25.7,29.23,North,6,3.1,3.1,85,0.00,,,0.00,VWS V13.01,2013-01-12 18:51:00,
2013-01-12 12:52:00,29.5,25.5,29.23,North,5,2.7,2.7,85,0.00,,,0.00,VWS V13.01,2013-01-12 18:52:00,
2013-01-12 12:56:00,29.3,25.4,29.23,NW,323,8.1,8.1,85,0.00,,,0.00,VWS V13.01,2013-01-12 18:56:00,
2013-01-12 12:57:00,29.1,25.2,29.23,NW,307,8.1,8.1,85,0.00,,,0.00,VWS V13.01,2013-01-12 18:57:00,
2013-01-12 12:58:00,28.8,24.8,29.26,NW,324,7.6,7.6,85,0.00,,,0.00,VWS V13.01,2013-01-12 18:58:00,
2013-01-12 13:01:00,29.3,25.4,29.26,NNW,341,4.0,4.0,85,0.00,,,0.00,VWS V13.01,2013-01-12 19:01:00,
2013-01-12 13:02:00,29.5,25.5,29.26,North,357,2.7,2.7,85,0.00,,,0.00,VWS V13.01,2013-01-12 19:02:00,
2013-01-12 13:03:00,29.5,25.5,29.26,NNE,26,2.2,2.2,85,0.00,,,0.00,VWS V13.01,2013-01-12 19:03:00,
2013-01-12 13:06:00,29.7,25.7,29.26,North,350,0.0,0.0,85,0.00,,,0.00,VWS V13.01,2013-01-12 19:06:00,
2013-01-12 13:07:00,29.8,25.9,29.26,NNW,346,0.0,0.0,85,0.00,,,0.00,VWS V13.01,2013-01-12 19:07:00,
2013-01-12 13:08:00,29.8,25.9,29.26,North,357,0.0,0.0,85,0.00,,,0.00,VWS V13.01,2013-01-12 19:08:00,
2013-01-12 13:11:00,30.2,26.2,29.26,North,6,0.0,0.0,85,0.00,,,0.00,VWS V13.01,2013-01-12 19:11:00,
2013-01-12 13:12:00,30.4,26.4,29.26,NW,322,6.3,6.3,85,0.00,,,0.00,VWS V13.01,2013-01-12 19:12:00,
2013-01-12 13:13:00,30.4,26.4,29.26,NW,325,3.6,3.6,85,0.00,,,0.00,VWS V13.01,2013-01-12 19:13:00,
2013-01-12 13:16:00,30.4,26.4,29.26,NNW,331,3.6,3.6,85,0.00,,,0.00,VWS V13.01,2013-01-12 19:16:00,
2013-01-12 13:17:00,30.6,26.6,29.26,North,357,2.7,2.7,85,0.00,,,0.00,VWS V13.01,2013-01-12 19:17:00,
2013-01-12 13:18:00,30.7,26.8,29.26,NNW,344,4.5,4.5,85,0.00,,,0.00,VWS V13.01,2013-01-12 19:18:00,
2013-01-12 13:21:00,31.5,27.5,29.26,North,353,3.1,3.1,85,0.00,,,0.00,VWS V13.01,2013-01-12 19:21:00,
2013-01-12 13:22:00,31.8,27.8,29.26,NE,51,5.4,5.4,85,0.00,,,0.00,VWS V13.01,2013-01-12 19:22:00,
2013-01-12 13:23:00,32.2,28.2,29.26,NNE,12,2.7,2.7,85,0.00,,,0.00,VWS V13.01,2013-01-12 19:23:00,
2013-01-12 13:26:00,32.7,28.7,29.26,North,0,3.6,3.6,85,0.00,,,0.00,VWS V13.01,2013-01-12 19:26:00,
2013-01-12 13:27:00,32.5,28.5,29.23,North,357,0.0,0.0,85,0.00,,,0.00,VWS V13.01,2013-01-12 19:27:00,
2013-01-12 13:28:00,32.5,28.5,29.23,North,7,2.7,2.7,85,0.00,,,0.00,VWS V13.01,2013-01-12 19:28:00,
2013-01-12 13:31:00,31.6,27.7,29.23,NE,40,3.1,3.1,85,0.00,,,0.00,VWS V13.01,2013-01-12 19:31:00,
2013-01-12 13:32:00,31.5,27.5,29.23,NNE,31,0.0,0.0,85,0.00,,,0.00,VWS V13.01,2013-01-12 19:32:00,
2013-01-12 13:33:00,31.5,27.5,29.23,NNE,14,2.7,2.7,85,0.00,,,0.00,VWS V13.01,2013-01-12 19:33:00,
2013-01-12 13:36:00,30.6,26.6,29.23,North,8,3.1,3.1,85,0.00,,,0.00,VWS V13.01,2013-01-12 19:36:00,
2013-01-12 13:37:00,30.4,26.4,29.23,NNE,17,0.0,0.0,85,0.00,,,0.00,VWS V13.01,2013-01-12 19:37:00,
2013-01-12 13:38:00,30.2,26.2,29.23,NE,34,6.3,6.3,85,0.00,,,0.00,VWS V13.01,2013-01-12 19:38:00,
2013-01-12 13:41:00,30.6,26.6,29.23,NNW,340,4.0,4.0,85,0.00,,,0.00,VWS V13.01,2013-01-12 19:41:00,
2013-01-12 13:42:00,30.6,26.6,29.23,NE,49,6.3,6.3,85,0.00,,,0.00,VWS V13.01,2013-01-12 19:42:00,
2013-01-12 13:43:00,30.6,26.6,29.26,NNE,25,5.4,5.4,85,0.00,,,0.00,VWS V13.01,2013-01-12 19:43:00,
2013-01-12 13:46:00,30.7,26.8,29.26,NNE,13,0.0,0.0,85,0.00,,,0.00,VWS V13.01,2013-01-12 19:46:00,
2013-01-12 13:47:00,30.7,26.8,29.26,North,0,3.1,3.1,85,0.00,,,0.00,VWS V13.01,2013-01-12 19:47:00,
2013-01-12 13:48:00,30.7,26.8,29.26,NNE,21,3.1,3.1,85,0.00,,,0.00,VWS V13.01,2013-01-12 19:48:00,
2013-01-12 13:51:00,31.1,27.1,29.26,North,5,0.0,0.0,85,0.00,,,0.00,VWS V13.01,2013-01-12 19:51:00,
2013-01-12 13:52:00,31.1,27.1,29.26,NW,320,3.6,3.6,85,0.00,,,0.00,VWS V13.01,2013-01-12 19:52:00,
2013-01-12 13:53:00,31.1,27.1,29.26,NNE,22,5.8,5.8,85,0.00,,,0.00,VWS V13.01,2013-01-12 19:53:00,
2013-01-12 13:56:00,31.1,27.1,29.26,NNE,30,3.1,3.1,85,0.00,,,0.00,VWS V13.01,2013-01-12 19:56:00,
2013-01-12 13:57:00,31.3,27.3,29.23,NNW,339,6.3,6.3,85,0.00,,,0.00,VWS V13.01,2013-01-12 19:57:00,
2013-01-12 13:58:00,31.5,27.5,29.23,NW,320,5.4,5.4,85,0.00,,,0.00,VWS V13.01,2013-01-12 19:58:00,
2013-01-12 14:01:00,31.6,27.7,29.23,NNW,327,6.3,6.3,85,0.00,,,0.00,VWS V13.01,2013-01-12 20:01:00,
2013-01-12 14:02:00,31.8,27.8,29.23,North,0,5.4,5.4,85,0.00,,,0.00,VWS V13.01,2013-01-12 20:02:00,
2013-01-12 14:03:00,32.0,28.0,29.23,NNE,28,3.6,3.6,85,0.00,,,0.00,VWS V13.01,2013-01-12 20:03:00,
2013-01-12 14:06:00,31.8,27.8,29.23,North,0,7.6,7.6,85,0.00,,,0.00,VWS V13.01,2013-01-12 20:06:00,
2013-01-12 14:07:00,31.6,27.7,29.23,NNW,333,3.6,3.6,85,0.00,,,0.00,VWS V13.01,2013-01-12 20:07:00,
2013-01-12 14:08:00,31.6,27.7,29.23,North,11,3.6,3.6,85,0.00,,,0.00,VWS V13.01,2013-01-12 20:08:00,
2013-01-12 14:11:00,31.5,27.5,29.23,NNW,348,8.1,8.1,85,0.00,,,0.00,VWS V13.01,2013-01-12 20:11:00,
2013-01-12 14:12:00,31.3,27.3,29.23,WNW,285,6.3,6.3,85,0.00,,,0.00,VWS V13.01,2013-01-12 20:12:00,
2013-01-12 14:13:00,31.3,27.3,29.23,NW,307,7.6,7.6,85,0.00,,,0.00,VWS V13.01,2013-01-12 20:13:00,
2013-01-12 14:17:00,31.1,27.1,29.23,NNW,327,6.3,6.3,85,0.00,,,0.00,VWS V13.01,2013-01-12 20:17:00,
2013-01-12 14:18:00,31.1,27.1,29.23,NNE,15,8.3,8.3,85,0.00,,,0.00,VWS V13.01,2013-01-12 20:18:00,
2013-01-12 14:22:00,31.1,27.1,29.23,NNW,333,7.2,7.2,85,0.00,,,0.00,VWS V13.01,2013-01-12 20:22:00,
2013-01-12 14:23:00,31.1,27.1,29.23,NNW,344,4.0,4.0,85,0.00,,,0.00,VWS V13.01,2013-01-12 20:23:00,
2013-01-12 14:27:00,31.1,27.1,29.23,NNW,341,5.4,5.4,85,0.00,,,0.00,VWS V13.01,2013-01-12 20:27:00,
2013-01-12 14:28:00,31.1,27.1,29.21,North,357,6.3,6.3,85,0.00,,,0.00,VWS V13.01,2013-01-12 20:28:00,
2013-01-12 14:32:00,31.1,27.1,29.21,NNW,348,4.9,4.9,85,0.00,,,0.00,VWS V13.01,2013-01-12 20:32:00,
2013-01-12 14:33:00,31.1,27.1,29.21,NNE,28,6.3,6.3,85,0.00,,,0.00,VWS V13.01,2013-01-12 20:33:00,
2013-01-12 14:37:00,31.1,27.1,29.21,NE,34,4.9,4.9,85,0.00,,,0.00,VWS V13.01,2013-01-12 20:37:00,
2013-01-12 14:38:00,31.1,27.1,29.21,NNE,23,5.4,5.4,85,0.00,,,0.00,VWS V13.01,2013-01-12 20:38:00,
2013-01-12 14:42:00,31.3,27.3,29.21,NNW,335,4.0,4.0,85,0.00,,,0.00,VWS V13.01,2013-01-12 20:42:00,
2013-01-12 14:43:00,31.3,27.3,29.21,NNW,332,5.8,5.8,85,0.00,,,0.00,VWS V13.01,2013-01-12 20:43:00,
2013-01-12 14:48:00,31.1,27.1,29.21,North,0,7.2,7.2,85,0.00,,,0.00,VWS V13.01,2013-01-12 20:48:00,
2013-01-12 14:53:00,31.3,27.3,29.21,NNW,341,4.0,4.0,85,0.00,,,0.00,VWS V13.01,2013-01-12 20:53:00,
2013-01-12 15:01:00,31.1,27.1,29.21,NW,325,7.6,7.6,85,0.00,,,0.00,VWS V13.01,2013-01-12 21:01:00,
2013-01-12 15:06:00,31.1,27.1,29.21,NNW,341,7.6,7.6,85,0.00,,,0.00,VWS V13.01,2013-01-12 21:06:00,
2013-01-12 15:11:00,30.9,27.0,29.21,NNW,340,3.6,3.6,85,0.00,,,0.00,VWS V13.01,2013-01-12 21:11:00,
2013-01-12 15:16:00,30.7,26.8,29.21,WNW,302,4.5,4.5,85,0.00,,,0.00,VWS V13.01,2013-01-12 21:16:00,
2013-01-12 15:21:00,30.2,26.2,29.21,NNW,327,5.4,5.4,85,0.00,,,0.00,VWS V13.01,2013-01-12 21:21:00,
2013-01-12 15:22:00,30.0,26.1,29.21,NNW,333,6.3,6.3,85,0.00,,,0.00,VWS V13.01,2013-01-12 21:22:00,
2013-01-12 15:26:00,29.5,25.5,29.21,NNW,328,6.3,6.3,85,0.00,,,0.00,VWS V13.01,2013-01-12 21:26:00,
2013-01-12 15:27:00,29.5,25.5,29.21,North,0,8.3,8.3,85,0.00,,,0.00,VWS V13.01,2013-01-12 21:27:00,
2013-01-12 15:31:00,29.7,25.7,29.21,North,0,4.0,4.0,85,0.00,,,0.00,VWS V13.01,2013-01-12 21:31:00,
2013-01-12 15:32:00,29.7,25.7,29.21,NNW,329,3.1,3.1,85,0.00,,,0.00,VWS V13.01,2013-01-12 21:32:00,
2013-01-12 15:36:00,29.5,25.5,29.21,NW,311,3.6,3.6,85,0.00,,,0.00,VWS V13.01,2013-01-12 21:36:00,
2013-01-12 15:37:00,29.5,25.5,29.21,NNW,341,3.6,3.6,85,0.00,,,0.00,VWS V13.01,2013-01-12 21:37:00,
2013-01-12 15:41:00,29.5,25.5,29.21,NW,326,5.8,5.8,85,0.00,,,0.00,VWS V13.01,2013-01-12 21:41:00,
2013-01-12 15:42:00,29.5,25.5,29.21,NNW,329,6.3,6.3,85,0.00,,,0.00,VWS V13.01,2013-01-12 21:42:00,
2013-01-12 15:46:00,29.3,25.4,29.23,NE,38,8.1,8.1,85,0.00,,,0.00,VWS V13.01,2013-01-12 21:46:00,
2013-01-12 15:47:00,29.1,25.2,29.23,NNW,348,5.8,5.8,85,0.00,,,0.00,VWS V13.01,2013-01-12 21:47:00,
2013-01-12 15:51:00,28.6,24.6,29.23,NW,323,5.8,5.8,85,0.00,,,0.00,VWS V13.01,2013-01-12 21:51:00,
2013-01-12 15:52:00,28.6,24.6,29.23,NNW,329,8.3,8.3,85,0.00,,,0.00,VWS V13.01,2013-01-12 21:52:00,
2013-01-12 15:56:00,28.0,24.1,29.23,NW,322,3.1,3.1,85,0.00,,,0.00,VWS V13.01,2013-01-12 21:56:00,
2013-01-12 15:57:00,27.9,24.0,29.23,North,5,3.1,3.1,85,0.00,,,0.00,VWS V13.01,2013-01-12 21:57:00,
2013-01-12 16:01:00,27.7,23.8,29.23,WNW,302,8.3,8.3,85,0.00,,,0.00,VWS V13.01,2013-01-12 22:01:00,
2013-01-12 16:02:00,27.5,23.6,29.23,NW,317,5.8,5.8,85,0.00,,,0.00,VWS V13.01,2013-01-12 22:02:00,
2013-01-12 16:06:00,27.3,23.4,29.23,NNW,329,5.4,5.4,85,0.00,,,0.00,VWS V13.01,2013-01-12 22:06:00,
2013-01-12 16:07:00,27.3,23.4,29.23,WNW,285,5.4,5.4,85,0.00,,,0.00,VWS V13.01,2013-01-12 22:07:00,
2013-01-12 16:11:00,27.1,23.2,29.23,NNW,329,3.6,3.6,85,0.00,,,0.00,VWS V13.01,2013-01-12 22:11:00,
2013-01-12 16:12:00,27.1,23.2,29.26,NE,40,3.6,3.6,85,0.00,,,0.00,VWS V13.01,2013-01-12 22:12:00,
2013-01-12 16:16:00,27.0,23.1,29.26,NW,308,0.0,0.0,85,0.00,,,0.00,VWS V13.01,2013-01-12 22:16:00,
2013-01-12 16:17:00,27.0,23.1,29.26,NW,314,0.0,0.0,85,0.00,,,0.00,VWS V13.01,2013-01-12 22:17:00,
2013-01-12 16:21:00,26.4,26.4,29.26,NW,326,5.4,5.4,100,0.00,,,0.00,VWS V13.01,2013-01-12 22:21:00,
2013-01-12 16:22:00,26.4,26.4,29.26,NW,326,5.4,5.4,100,0.00,,,0.00,VWS V13.01,2013-01-12 22:22:00,
2013-01-12 16:27:00,26.2,26.2,29.26,North,350,7.2,7.2,100,0.00,,,0.00,VWS V13.01,2013-01-12 22:27:00,
2013-01-12 16:32:00,26.1,26.1,29.26,NW,313,3.6,3.6,100,0.00,,,0.00,VWS V13.01,2013-01-12 22:32:00,
2013-01-12 16:37:00,26.1,26.1,29.26,WNW,301,3.6,3.6,100,0.00,,,0.00,VWS V13.01,2013-01-12 22:37:00,
2013-01-12 16:42:00,26.1,26.1,29.26,NNW,340,4.5,4.5,100,0.00,,,0.00,VWS V13.01,2013-01-12 22:42:00,
2013-01-12 16:47:00,25.9,25.9,29.26,NW,315,6.3,6.3,100,0.00,,,0.00,VWS V13.01,2013-01-12 22:47:00,
2013-01-12 16:52:00,25.9,25.9,29.26,NW,319,5.4,5.4,100,0.00,,,0.00,VWS V13.01,2013-01-12 22:52:00,
2013-01-12 16:57:00,25.7,25.7,29.26,North,349,0.0,0.0,100,0.00,,,0.00,VWS V13.01,2013-01-12 22:57:00,
2013-01-12 17:02:00,25.7,25.7,29.26,NNW,343,5.4,5.4,100,0.00,,,0.00,VWS V13.01,2013-01-12 23:02:00,
2013-01-12 17:07:00,25.5,25.5,29.26,WNW,294,5.4,5.4,100,0.00,,,0.00,VWS V13.01,2013-01-12 23:07:00,
2013-01-12 17:12:00,25.5,25.5,29.23,NNW,337,6.3,6.3,100,0.00,,,0.00,VWS V13.01,2013-01-12 23:12:00,
2013-01-12 17:17:00,25.3,25.3,29.23,NNW,341,7.2,7.2,100,0.00,,,0.00,VWS V13.01,2013-01-12 23:17:00,
2013-01-12 17:23:00,25.3,25.3,29.23,North,10,4.9,4.9,100,0.00,,,0.00,VWS V13.01,2013-01-12 23:23:00,
2013-01-12 17:24:00,25.3,25.3,29.23,NW,325,5.4,5.4,100,0.00,,,0.00,VWS V13.01,2013-01-12 23:24:00,
2013-01-12 17:26:00,25.3,25.3,29.23,NW,318,5.4,5.4,100,0.00,,,0.00,VWS V13.01,2013-01-12 23:26:00,
2013-01-12 17:30:00,25.3,25.3,29.23,NW,315,5.8,5.8,100,0.00,,,0.00,VWS V13.01,2013-01-12 23:30:00,
2013-01-12 17:31:00,25.3,25.3,29.23,NW,308,5.8,5.8,100,0.00,,,0.00,VWS V13.01,2013-01-12 23:31:00,
2013-01-12 17:34:00,25.3,25.3,29.23,North,7,7.6,7.6,100,0.00,,,0.00,VWS V13.01,2013-01-12 23:34:00,
2013-01-12 17:35:00,25.3,25.3,29.23,NNE,16,4.9,4.9,100,0.00,,,0.00,VWS V13.01,2013-01-12 23:35:00,
2013-01-12 17:37:00,25.3,25.3,29.23,NW,317,6.3,6.3,100,0.00,,,0.00,VWS V13.01,2013-01-12 23:37:00,
2013-01-12 17:41:00,25.2,25.2,29.23,North,357,8.7,8.7,100,0.00,,,0.00,VWS V13.01,2013-01-12 23:41:00,
2013-01-12 17:43:00,25.2,25.2,29.23,NW,317,8.1,8.1,100,0.00,,,0.00,VWS V13.01,2013-01-12 23:43:00,
2013-01-12 17:44:00,25.2,25.2,29.26,North,7,7.6,7.6,100,0.00,,,0.00,VWS V13.01,2013-01-12 23:44:00,
2013-01-12 17:47:00,25.2,25.2,29.26,NNW,337,4.0,4.0,100,0.00,,,0.00,VWS V13.01,2013-01-12 23:47:00,
2013-01-12 17:49:00,25.2,25.2,29.26,NNW,340,7.6,7.6,100,0.00,,,0.00,VWS V13.01,2013-01-12 23:49:00,
2013-01-12 17:50:00,25.2,25.2,29.26,NW,315,6.3,6.3,100,0.00,,,0.00,VWS V13.01,2013-01-12 23:50:00,
2013-01-12 17:55:00,25.0,25.0,29.26,North,0,8.3,8.3,100,0.00,,,0.00,VWS V13.01,2013-01-12 23:55:00,
2013-01-12 17:57:00,25.0,25.0,29.26,NNW,329,8.3,8.3,100,0.00,,,0.00,VWS V13.01,2013-01-12 23:57:00,
2013-01-12 18:00:00,25.0,25.0,29.26,NW,318,5.8,5.8,100,0.00,,,0.00,VWS V13.01,2013-01-13 00:00:00,
2013-01-12 18:02:00,25.0,25.0,29.26,NNE,26,8.7,8.7,100,0.00,,,0.00,VWS V13.01,2013-01-13 00:02:00,
2013-01-12 18:03:00,25.0,25.0,29.26,NW,325,10.1,10.1,100,0.00,,,0.00,VWS V13.01,2013-01-13 00:03:00,
2013-01-12 18:05:00,25.0,25.0,29.26,NNE,25,8.1,8.1,100,0.00,,,0.00,VWS V13.01,2013-01-13 00:05:00,
2013-01-12 18:07:00,24.8,24.8,29.26,North,357,6.3,6.3,100,0.00,,,0.00,VWS V13.01,2013-01-13 00:07:00,
2013-01-12 18:09:00,24.8,24.8,29.26,NNW,338,5.4,5.4,100,0.00,,,0.00,VWS V13.01,2013-01-13 00:09:00,
2013-01-12 18:11:00,24.8,24.8,29.26,North,3,5.4,5.4,100,0.00,,,0.00,VWS V13.01,2013-01-13 00:11:00,
2013-01-12 18:15:00,24.8,24.8,29.23,NNW,348,11.0,11.0,100,0.00,,,0.00,VWS V13.01,2013-01-13 00:15:00,
2013-01-12 18:16:00,24.8,24.8,29.23,NW,324,7.6,7.6,100,0.00,,,0.00,VWS V13.01,2013-01-13 00:16:00,
2013-01-12 18:19:00,24.8,24.8,29.23,North,9,7.6,7.6,100,0.00,,,0.00,VWS V13.01,2013-01-13 00:19:00,
2013-01-12 18:22:00,24.8,24.8,29.23,NNW,327,7.2,7.2,100,0.00,,,0.00,VWS V13.01,2013-01-13 00:22:00,
2013-01-12 18:23:00,24.8,24.8,29.23,North,353,5.4,5.4,100,0.00,,,0.00,VWS V13.01,2013-01-13 00:23:00,
2013-01-12 18:24:00,24.8,24.8,29.23,NNW,335,8.7,8.7,100,0.00,,,0.00,VWS V13.01,2013-01-13 00:24:00,
2013-01-12 18:29:00,24.4,24.4,29.21,NNW,341,5.4,5.4,100,0.00,,,0.00,VWS V13.01,2013-01-13 00:29:00,
2013-01-12 18:31:00,24.4,24.4,29.21,North,350,7.2,7.2,100,0.00,,,0.00,VWS V13.01,2013-01-13 00:31:00,
2013-01-12 18:32:00,24.4,24.4,29.21,NNW,335,7.2,7.2,100,0.00,,,0.00,VWS V13.01,2013-01-13 00:32:00,
2013-01-12 18:34:00,24.4,24.4,29.21,North,353,5.8,5.8,100,0.00,,,0.00,VWS V13.01,2013-01-13 00:34:00,
2013-01-12 18:35:00,24.4,24.4,29.21,North,1,6.3,6.3,100,0.00,,,0.00,VWS V13.01,2013-01-13 00:35:00,
2013-01-12 18:38:00,24.4,24.4,29.21,NNW,342,4.0,4.0,100,0.00,,,0.00,VWS V13.01,2013-01-13 00:38:00,
2013-01-12 18:39:00,24.4,24.4,29.21,NNW,332,5.8,5.8,100,0.00,,,0.00,VWS V13.01,2013-01-13 00:39:00,
2013-01-12 18:40:00,24.4,24.4,29.21,NNW,345,6.3,6.3,100,0.00,,,0.00,VWS V13.01,2013-01-13 00:40:00,
2013-01-12 18:46:00,24.6,24.6,29.23,NNW,333,5.4,5.4,100,0.00,,,0.00,VWS V13.01,2013-01-13 00:46:00,
2013-01-12 18:48:00,24.6,24.6,29.23,NNW,330,8.1,8.1,100,0.00,,,0.00,VWS V13.01,2013-01-13 00:48:00,
2013-01-12 18:49:00,24.6,24.6,29.23,NW,322,7.6,7.6,100,0.00,,,0.00,VWS V13.01,2013-01-13 00:49:00,
2013-01-12 18:54:00,24.8,22.5,29.23,NW,321,7.6,7.6,91,0.00,,,0.00,VWS V13.01,2013-01-13 00:54:00,
2013-01-12 18:56:00,24.8,22.5,29.23,NNW,340,3.1,3.1,91,0.00,,,0.00,VWS V13.01,2013-01-13 00:56:00,
2013-01-12 18:57:00,24.8,22.5,29.23,WNW,295,4.9,4.9,91,0.00,,,0.00,VWS V13.01,2013-01-13 00:57:00,
2013-01-12 18:58:00,24.8,22.5,29.26,NW,317,5.4,5.4,91,0.00,,,0.00,VWS V13.01,2013-01-13 00:58:00,
2013-01-12 19:01:00,24.8,22.5,29.26,NNW,345,5.8,5.8,91,0.00,,,0.00,VWS V13.01,2013-01-13 01:01:00,
2013-01-12 19:02:00,24.8,22.5,29.26,NNW,329,8.1,8.1,91,0.00,,,0.00,VWS V13.01,2013-01-13 01:02:00,
2013-01-12 19:04:00,24.8,22.5,29.26,North,357,6.3,6.3,91,0.00,,,0.00,VWS V13.01,2013-01-13 01:04:00,
2013-01-12 19:05:00,25.0,22.7,29.26,WNW,300,5.8,5.8,91,0.00,,,0.00,VWS V13.01,2013-01-13 01:05:00,
2013-01-12 19:06:00,25.0,22.7,29.26,NNW,338,6.3,6.3,91,0.00,,,0.00,VWS V13.01,2013-01-13 01:06:00,
2013-01-12 19:08:00,25.0,22.7,29.26,North,357,5.8,5.8,91,0.00,,,0.00,VWS V13.01,2013-01-13 01:08:00,
2013-01-12 19:10:00,25.0,22.7,29.26,North,353,4.9,4.9,91,0.00,,,0.00,VWS V13.01,2013-01-13 01:10:00,
2013-01-12 19:11:00,25.0,22.7,29.26,NNW,336,2.7,2.7,91,0.00,,,0.00,VWS V13.01,2013-01-13 01:11:00,
2013-01-12 19:15:00,25.2,22.9,29.26,NNW,336,5.8,5.8,91,0.00,,,0.00,VWS V13.01,2013-01-13 01:15:00,
2013-01-12 19:16:00,25.2,22.9,29.26,North,3,5.8,5.8,91,0.00,,,0.00,VWS V13.01,2013-01-13 01:16:00,
2013-01-12 19:17:00,25.2,22.9,29.26,North,350,4.0,4.0,91,0.00,,,0.00,VWS V13.01,2013-01-13 01:17:00,
2013-01-12 19:19:00,25.2,22.9,29.26,NW,312,6.3,6.3,91,0.00,,,0.00,VWS V13.01,2013-01-13 01:19:00,
2013-01-12 19:21:00,25.2,22.9,29.26,North,0,5.8,5.8,91,0.00,,,0.00,VWS V13.01,2013-01-13 01:21:00,
2013-01-12 19:22:00,25.3,23.1,29.26,NNE,15,6.3,6.3,91,0.00,,,0.00,VWS V13.01,2013-01-13 01:22:00,
2013-01-12 19:23:00,25.3,23.1,29.26,NW,304,10.1,10.1,91,0.00,,,0.00,VWS V13.01,2013-01-13 01:23:00,
2013-01-12 19:28:00,25.3,23.1,29.26,NW,311,12.8,12.8,91,0.00,,,0.00,VWS V13.01,2013-01-13 01:28:00,
2013-01-12 19:29:00,25.3,23.1,29.26,North,357,8.1,8.1,91,0.00,,,0.00,VWS V13.01,2013-01-13 01:29:00,
2013-01-12 19:30:00,25.3,23.1,29.26,NNW,327,8.7,8.7,91,0.00,,,0.00,VWS V13.01,2013-01-13 01:30:00,
2013-01-12 19:33:00,25.3,23.1,29.26,NNW,336,3.6,3.6,91,0.00,,,0.00,VWS V13.01,2013-01-13 01:33:00,
2013-01-12 19:34:00,25.3,23.1,29.26,North,0,8.3,8.3,91,0.00,,,0.00,VWS V13.01,2013-01-13 01:34:00,
2013-01-12 19:36:00,25.3,23.1,29.26,North,0,5.8,5.8,91,0.00,,,0.00,VWS V13.01,2013-01-13 01:36:00,
2013-01-12 19:38:00,25.3,23.1,29.26,NW,318,11.0,11.0,91,0.00,,,0.00,VWS V13.01,2013-01-13 01:38:00,
2013-01-12 19:39:00,25.3,23.1,29.26,North,353,5.4,5.4,91,0.00,,,0.00,VWS V13.01,2013-01-13 01:39:00,
2013-01-12 19:42:00,25.3,23.1,29.26,NNE,15,8.1,8.1,91,0.00,,,0.00,VWS V13.01,2013-01-13 01:42:00,
2013-01-12 19:44:00,25.3,23.1,29.23,North,349,4.9,4.9,91,0.00,,,0.00,VWS V13.01,2013-01-13 01:44:00,
2013-01-12 19:45:00,25.3,23.1,29.23,North,0,7.6,7.6,91,0.00,,,0.00,VWS V13.01,2013-01-13 01:45:00,
2013-01-12 19:46:00,25.3,23.1,29.23,NW,326,5.4,5.4,91,0.00,,,0.00,VWS V13.01,2013-01-13 01:46:00,
2013-01-12 19:47:00,25.3,23.1,29.23,NW,308,5.8,5.8,91,0.00,,,0.00,VWS V13.01,2013-01-13 01:47:00,
2013-01-12 19:50:00,25.3,23.1,29.23,NNW,340,2.7,2.7,91,0.00,,,0.00,VWS V13.01,2013-01-13 01:50:00,
2013-01-12 19:54:00,25.3,23.1,29.23,North,4,3.1,3.1,91,0.00,,,0.00,VWS V13.01,2013-01-13 01:54:00,
2013-01-12 19:55:00,25.3,23.1,29.23,North,357,8.1,8.1,91,0.00,,,0.00,VWS V13.01,2013-01-13 01:55:00,
2013-01-12 19:56:00,25.3,23.1,29.23,NW,318,5.4,5.4,91,0.00,,,0.00,VWS V13.01,2013-01-13 01:56:00,
2013-01-12 20:00:00,25.3,23.1,29.29,NNW,328,5.4,5.4,91,0.00,,,0.00,VWS V13.01,2013-01-13 02:00:00,
2013-01-12 20:02:00,25.3,23.1,29.29,NW,317,6.3,6.3,91,0.00,,,0.00,VWS V13.01,2013-01-13 02:02:00,
2013-01-12 20:03:00,25.3,23.1,29.29,NW,315,6.3,6.3,91,0.00,,,0.00,VWS V13.01,2013-01-13 02:03:00,
2013-01-12 20:04:00,25.3,23.1,29.29,North,357,8.1,8.1,91,0.00,,,0.00,VWS V13.01,2013-01-13 02:04:00,
2013-01-12 20:06:00,25.2,22.9,29.29,NNW,329,12.3,12.3,91,0.00,,,0.00,VWS V13.01,2013-01-13 02:06:00,
2013-01-12 20:08:00,25.2,22.9,29.29,NW,312,7.6,7.6,91,0.00,,,0.00,VWS V13.01,2013-01-13 02:08:00,
2013-01-12 20:10:00,25.2,22.9,29.29,NW,319,8.3,8.3,91,0.00,,,0.00,VWS V13.01,2013-01-13 02:10:00,
2013-01-12 20:11:00,25.0,22.7,29.29,WNW,297,8.1,8.1,91,0.00,,,0.00,VWS V13.01,2013-01-13 02:11:00,
2013-01-12 20:14:00,25.0,22.7,29.29,NW,305,4.0,4.0,91,0.00,,,0.00,VWS V13.01,2013-01-13 02:14:00,
2013-01-12 20:15:00,25.0,22.7,29.29,NW,317,5.8,5.8,91,0.00,,,0.00,VWS V13.01,2013-01-13 02:15:00,
2013-01-12 20:19:00,24.8,22.5,29.29,NNW,348,5.8,5.8,91,0.00,,,0.00,VWS V13.01,2013-01-13 02:19:00,
2013-01-12 20:20:00,24.8,22.5,29.29,North,0,5.4,5.4,91,0.00,,,0.00,VWS V13.01,2013-01-13 02:20:00,
2013-01-12 20:22:00,24.8,22.5,29.29,North,350,7.6,7.6,91,0.00,,,0.00,VWS V13.01,2013-01-13 02:22:00,
2013-01-12 20:23:00,24.8,22.5,29.29,NW,324,5.8,5.8,91,0.00,,,0.00,VWS V13.01,2013-01-13 02:23:00,
2013-01-12 20:26:00,24.8,22.5,29.29,NW,313,7.6,7.6,91,0.00,,,0.00,VWS V13.01,2013-01-13 02:26:00,
2013-01-12 20:29:00,24.8,22.5,29.26,WNW,299,4.0,4.0,91,0.00,,,0.00,VWS V13.01,2013-01-13 02:29:00,
2013-01-12 20:31:00,24.6,22.4,29.26,NW,321,8.3,8.3,91,0.00,,,0.00,VWS V13.01,2013-01-13 02:31:00,
2013-01-12 20:32:00,24.6,22.4,29.26,NW,326,8.1,8.1,91,0.00,,,0.00,VWS V13.01,2013-01-13 02:32:00,
2013-01-12 20:33:00,24.6,22.4,29.26,NW,319,5.4,5.4,91,0.00,,,0.00,VWS V13.01,2013-01-13 02:33:00,
2013-01-12 20:36:00,24.6,22.4,29.26,North,0,8.1,8.1,91,0.00,,,0.00,VWS V13.01,2013-01-13 02:36:00,
2013-01-12 20:37:00,24.6,22.4,29.26,NNW,328,5.4,5.4,91,0.00,,,0.00,VWS V13.01,2013-01-13 02:37:00,
2013-01-12 20:39:00,24.6,22.4,29.26,NNE,23,5.8,5.8,91,0.00,,,0.00,VWS V13.01,2013-01-13 02:39:00,
2013-01-12 20:44:00,24.6,22.4,29.26,NNW,341,5.4,5.4,91,0.00,,,0.00,VWS V13.01,2013-01-13 02:44:00,
2013-01-12 20:45:00,24.6,22.4,29.26,NW,322,5.8,5.8,91,0.00,,,0.00,VWS V13.01,2013-01-13 02:45:00,
2013-01-12 20:46:00,24.6,22.4,29.26,WNW,300,8.1,8.1,91,0.00,,,0.00,VWS V13.01,2013-01-13 02:46:00,
2013-01-12 20:48:00,24.6,22.4,29.26,NNW,330,8.1,8.1,91,0.00,,,0.00,VWS V13.01,2013-01-13 02:48:00,
2013-01-12 20:50:00,24.6,22.4,29.26,NNW,335,5.8,5.8,91,0.00,,,0.00,VWS V13.01,2013-01-13 02:50:00,
2013-01-12 20:52:00,24.4,22.2,29.26,NNW,336,8.3,8.3,91,0.00,,,0.00,VWS V13.01,2013-01-13 02:52:00,
2013-01-12 20:54:00,24.4,22.2,29.26,NW,316,3.6,3.6,91,0.00,,,0.00,VWS V13.01,2013-01-13 02:54:00,
2013-01-12 20:58:00,24.4,22.2,29.26,NNW,333,2.7,2.7,91,0.00,,,0.00,VWS V13.01,2013-01-13 02:58:00,
2013-01-12 20:59:00,24.4,22.2,29.26,NNW,340,6.3,6.3,91,0.00,,,0.00,VWS V13.01,2013-01-13 02:59:00,
2013-01-12 21:01:00,24.4,22.2,29.26,NNW,327,5.4,5.4,91,0.00,,,0.00,VWS V13.01,2013-01-13 03:01:00,
2013-01-12 21:04:00,24.4,22.2,29.26,NW,312,5.8,5.8,91,0.00,,,0.00,VWS V13.01,2013-01-13 03:04:00,
2013-01-12 21:05:00,24.4,22.2,29.26,North,353,3.1,3.1,91,0.00,,,0.00,VWS V13.01,2013-01-13 03:05:00,
2013-01-12 21:06:00,24.4,22.2,29.26,NNW,341,5.8,5.8,91,0.00,,,0.00,VWS V13.01,2013-01-13 03:06:00,
2013-01-12 21:10:00,24.4,22.2,29.26,NNW,332,5.4,5.4,91,0.00,,,0.00,VWS V13.01,2013-01-13 03:10:00,
2013-01-12 21:12:00,24.4,22.2,29.26,WNW,302,7.2,7.2,91,0.00,,,0.00,VWS V13.01,2013-01-13 03:12:00,
2013-01-12 21:15:00,24.4,22.2,29.23,North,357,4.0,4.0,91,0.00,,,0.00,VWS V13.01,2013-01-13 03:15:00,
2013-01-12 21:18:00,24.4,22.2,29.23,NW,307,6.3,6.3,91,0.00,,,0.00,VWS V13.01,2013-01-13 03:18:00,
2013-01-12 21:19:00,24.4,22.2,29.23,NW,316,9.2,9.2,91,0.00,,,0.00,VWS V13.01,2013-01-13 03:19:00,
2013-01-12 21:20:00,24.4,22.2,29.23,NNW,331,5.8,5.8,91,0.00,,,0.00,VWS V13.01,2013-01-13 03:20:00,
2013-01-12 21:24:00,24.3,22.0,29.23,NW,319,8.1,8.1,91,0.00,,,0.00,VWS V13.01,2013-01-13 03:24:00,
2013-01-12 21:25:00,24.3,22.0,29.23,NW,318,8.1,8.1,91,0.00,,,0.00,VWS V13.01,2013-01-13 03:25:00,
2013-01-12 21:26:00,24.3,22.0,29.23,NNE,31,4.9,4.9,91,0.00,,,0.00,VWS V13.01,2013-01-13 03:26:00,
2013-01-12 21:29:00,24.3,22.0,29.26,NW,307,10.1,10.1,91,0.00,,,0.00,VWS V13.01,2013-01-13 03:29:00,
2013-01-12 21:30:00,24.3,22.0,29.26,NW,320,8.1,8.1,91,0.00,,,0.00,VWS V13.01,2013-01-13 03:30:00,
2013-01-12 21:33:00,24.3,22.0,29.26,NW,315,6.3,6.3,91,0.00,,,0.00,VWS V13.01,2013-01-13 03:33:00,
2013-01-12 21:35:00,24.3,22.0,29.26,NNW,343,8.1,8.1,91,0.00,,,0.00,VWS V13.01,2013-01-13 03:35:00,
2013-01-12 21:36:00,24.3,22.0,29.26,NNW,331,5.8,5.8,91,0.00,,,0.00,VWS V13.01,2013-01-13 03:36:00,
2013-01-12 21:40:00,24.3,22.0,29.26,NNW,333,6.3,6.3,91,0.00,,,0.00,VWS V13.01,2013-01-13 03:40:00,
2013-01-12 21:41:00,24.3,22.0,29.26,NNW,341,5.8,5.8,91,0.00,,,0.00,VWS V13.01,2013-01-13 03:41:00,
2013-01-12 21:45:00,24.3,22.0,29.26,NNE,13,8.7,8.7,91,0.00,,,0.00,VWS V13.01,2013-01-13 03:45:00,
2013-01-12 21:46:00,24.3,22.0,29.26,NNW,334,8.3,8.3,91,0.00,,,0.00,VWS V13.01,2013-01-13 03:46:00,
2013-01-12 21:47:00,24.3,22.0,29.26,NNW,327,5.4,5.4,91,0.00,,,0.00,VWS V13.01,2013-01-13 03:47:00,
2013-01-12 21:51:00,24.3,22.0,29.26,NNW,338,8.1,8.1,91,0.00,,,0.00,VWS V13.01,2013-01-13 03:51:00,
2013-01-12 21:53:00,24.3,22.0,29.26,NNW,339,6.7,6.7,91,0.00,,,0.00,VWS V13.01,2013-01-13 03:53:00,
2013-01-12 21:55:00,24.3,22.0,29.26,NNW,327,7.6,7.6,91,0.00,,,0.00,VWS V13.01,2013-01-13 03:55:00,
2013-01-12 21:57:00,24.3,22.0,29.26,NNW,337,8.3,8.3,91,0.00,,,0.00,VWS V13.01,2013-01-13 03:57:00,
2013-01-12 21:59:00,24.3,22.0,29.26,NNW,344,7.6,7.6,91,0.00,,,0.00,VWS V13.01,2013-01-13 03:59:00,
2013-01-12 22:00:00,24.3,22.0,29.26,NNW,336,4.0,4.0,91,0.00,,,0.00,VWS V13.01,2013-01-13 04:00:00,
2013-01-12 22:02:00,24.3,22.0,29.26,NNW,340,7.6,7.6,91,0.00,,,0.00,VWS V13.01,2013-01-13 04:02:00,
2013-01-12 22:05:00,24.3,22.0,29.26,NNW,344,4.0,4.0,91,0.00,,,0.00,VWS V13.01,2013-01-13 04:05:00,
2013-01-12 22:07:00,24.3,22.0,29.26,North,357,4.9,4.9,91,0.00,,,0.00,VWS V13.01,2013-01-13 04:07:00,
2013-01-12 22:10:00,24.3,22.0,29.26,NW,326,6.3,6.3,91,0.00,,,0.00,VWS V13.01,2013-01-13 04:10:00,
2013-01-12 22:12:00,24.3,22.0,29.26,WNW,293,5.4,5.4,91,0.00,,,0.00,VWS V13.01,2013-01-13 04:12:00,
2013-01-12 22:13:00,24.3,22.0,29.26,NW,325,4.5,4.5,91,0.00,,,0.00,VWS V13.01,2013-01-13 04:13:00,
2013-01-12 22:15:00,24.3,22.0,29.26,North,357,5.4,5.4,91,0.00,,,0.00,VWS V13.01,2013-01-13 04:15:00,
2013-01-12 22:18:00,24.3,22.0,29.26,WNW,303,8.1,8.1,91,0.00,,,0.00,VWS V13.01,2013-01-13 04:18:00,
2013-01-12 22:19:00,24.3,22.0,29.26,NW,317,6.3,6.3,91,0.00,,,0.00,VWS V13.01,2013-01-13 04:19:00,
2013-01-12 22:20:00,24.3,22.0,29.26,North,0,3.6,3.6,91,0.00,,,0.00,VWS V13.01,2013-01-13 04:20:00,
2013-01-12 22:21:00,24.1,21.8,29.26,NNW,334,8.3,8.3,91,0.00,,,0.00,VWS V13.01,2013-01-13 04:21:00,
2013-01-12 22:24:00,24.1,21.8,29.26,NNW,340,5.8,5.8,91,0.00,,,0.00,VWS V13.01,2013-01-13 04:24:00,
2013-01-12 22:27:00,24.1,21.8,29.26,NW,321,6.3,6.3,91,0.00,,,0.00,VWS V13.01,2013-01-13 04:27:00,
2013-01-12 22:29:00,24.1,21.8,29.26,North,4,10.1,10.1,91,0.00,,,0.00,VWS V13.01,2013-01-13 04:29:00,
2013-01-12 22:30:00,23.9,21.7,29.26,NW,309,8.3,8.3,91,0.00,,,0.00,VWS V13.01,2013-01-13 04:30:00,
2013-01-12 22:32:00,23.9,21.7,29.26,North,7,7.6,7.6,91,0.00,,,0.00,VWS V13.01,2013-01-13 04:32:00,
2013-01-12 22:36:00,23.9,21.7,29.26,North,353,7.6,7.6,91,0.00,,,0.00,VWS V13.01,2013-01-13 04:36:00,
2013-01-12 22:37:00,23.9,21.7,29.26,NNW,336,8.7,8.7,91,0.00,,,0.00,VWS V13.01,2013-01-13 04:37:00,
2013-01-12 22:40:00,23.9,21.7,29.26,WNW,287,3.6,3.6,91,0.00,,,0.00,VWS V13.01,2013-01-13 04:40:00,
2013-01-12 22:42:00,23.9,21.7,29.29,WNW,292,6.7,6.7,91,0.00,,,0.00,VWS V13.01,2013-01-13 04:42:00,
2013-01-12 22:44:00,23.9,21.7,29.29,WNW,303,4.9,4.9,91,0.00,,,0.00,VWS V13.01,2013-01-13 04:44:00,
2013-01-12 22:45:00,23.9,21.7,29.29,NNW,332,7.6,7.6,91,0.00,,,0.00,VWS V13.01,2013-01-13 04:45:00,
2013-01-12 22:48:00,23.9,21.7,29.29,NW,322,5.4,5.4,91,0.00,,,0.00,VWS V13.01,2013-01-13 04:48:00,
2013-01-12 22:51:00,23.9,21.7,29.29,NNW,327,4.0,4.0,91,0.00,,,0.00,VWS V13.01,2013-01-13 04:51:00,
2013-01-12 22:52:00,23.9,21.7,29.29,NNW,333,6.3,6.3,91,0.00,,,0.00,VWS V13.01,2013-01-13 04:52:00,
2013-01-12 22:53:00,23.9,21.7,29.29,NNW,335,5.4,5.4,91,0.00,,,0.00,VWS V13.01,2013-01-13 04:53:00,
2013-01-12 22:56:00,23.9,21.7,29.29,NNW,328,6.3,6.3,91,0.00,,,0.00,VWS V13.01,2013-01-13 04:56:00,
2013-01-12 22:59:00,23.9,21.7,29.26,NNW,333,5.4,5.4,91,0.00,,,0.00,VWS V13.01,2013-01-13 04:59:00,
2013-01-12 23:03:00,23.9,21.7,29.26,NW,317,8.7,8.7,91,0.00,,,0.00,VWS V13.01,2013-01-13 05:03:00,
2013-01-12 23:04:00,23.9,21.7,29.26,NNW,330,5.4,5.4,91,0.00,,,0.00,VWS V13.01,2013-01-13 05:04:00,
2013-01-12 23:06:00,23.9,21.7,29.26,NNW,331,6.3,6.3,91,0.00,,,0.00,VWS V13.01,2013-01-13 05:06:00,
2013-01-12 23:08:00,23.9,21.7,29.26,NNW,336,4.0,4.0,91,0.00,,,0.00,VWS V13.01,2013-01-13 05:08:00,
2013-01-12 23:09:00,23.9,21.7,29.26,NNW,327,5.8,5.8,91,0.00,,,0.00,VWS V13.01,2013-01-13 05:09:00,
2013-01-12 23:13:00,23.7,21.5,29.29,WNW,303,8.7,8.7,91,0.00,,,0.00,VWS V13.01,2013-01-13 05:13:00,
2013-01-12 23:15:00,23.7,21.5,29.29,North,0,4.0,4.0,91,0.00,,,0.00,VWS V13.01,2013-01-13 05:15:00,
2013-01-12 23:16:00,23.7,21.5,29.29,NNW,337,6.7,6.7,91,0.00,,,0.00,VWS V13.01,2013-01-13 05:16:00,
2013-01-12 23:19:00,23.5,21.3,29.29,NNW,338,4.0,4.0,91,0.00,,,0.00,VWS V13.01,2013-01-13 05:19:00,
2013-01-12 23:21:00,23.5,21.3,29.29,North,353,5.4,5.4,91,0.00,,,0.00,VWS V13.01,2013-01-13 05:21:00,
2013-01-12 23:25:00,23.5,21.3,29.29,NNW,332,6.3,6.3,91,0.00,,,0.00,VWS V13.01,2013-01-13 05:25:00,
2013-01-12 23:26:00,23.5,21.3,29.29,NW,305,5.8,5.8,91,0.00,,,0.00,VWS V13.01,2013-01-13 05:26:00,
2013-01-12 23:29:00,23.4,21.1,29.26,North,349,6.3,6.3,91,0.00,,,0.00,VWS V13.01,2013-01-13 05:29:00,
2013-01-12 23:31:00,23.2,21.0,29.26,NW,307,8.1,8.1,91,0.00,,,0.00,VWS V13.01,2013-01-13 05:31:00,
2013-01-12 23:32:00,23.2,21.0,29.26,NNW,332,6.3,6.3,91,0.00,,,0.00,VWS V13.01,2013-01-13 05:32:00,
2013-01-12 23:36:00,22.8,22.1,29.26,WNW,302,5.8,5.8,97,0.00,,,0.00,VWS V13.01,2013-01-13 05:36:00,
2013-01-12 23:37:00,22.8,22.1,29.26,NNW,338,4.0,4.0,97,0.00,,,0.00,VWS V13.01,2013-01-13 05:37:00,
2013-01-12 23:39:00,22.6,21.9,29.26,North,357,8.1,8.1,97,0.00,,,0.00,VWS V13.01,2013-01-13 05:39:00,
2013-01-12 23:41:00,22.6,21.9,29.26,NW,314,5.8,5.8,97,0.00,,,0.00,VWS V13.01,2013-01-13 05:41:00,
2013-01-12 23:43:00,22.3,21.6,29.26,NW,318,3.6,3.6,97,0.00,,,0.00,VWS V13.01,2013-01-13 05:43:00,
2013-01-12 23:45:00,22.1,21.4,29.26,WNW,300,3.1,3.1,97,0.00,,,0.00,VWS V13.01,2013-01-13 05:45:00,
2013-01-12 23:47:00,21.9,21.2,29.26,North,3,4.9,4.9,97,0.00,,,0.00,VWS V13.01,2013-01-13 05:47:00,
2013-01-12 23:49:00,21.9,21.2,29.26,NW,324,3.6,3.6,97,0.00,,,0.00,VWS V13.01,2013-01-13 05:49:00,
2013-01-12 23:50:00,21.7,21.0,29.26,NW,323,4.0,4.0,97,0.00,,,0.00,VWS V13.01,2013-01-13 05:50:00,
2013-01-12 23:52:00,21.6,20.8,29.26,NW,324,6.7,6.7,97,0.00,,,0.00,VWS V13.01,2013-01-13 05:52:00,
2013-01-12 23:55:00,21.7,21.0,29.26,NNW,327,5.8,5.8,97,0.00,,,0.00,VWS V13.01,2013-01-13 05:55:00,
2013-01-12 23:57:00,21.9,21.2,29.26,NW,308,6.3,6.3,97,0.00,,,0.00,VWS V13.01,2013-01-13 05:57:00,
2013-01-12 23:58:00,21.9,21.2,29.26,NW,315,4.0,4.0,97,0.00,,,0.00,VWS V13.01,2013-01-13 05:58:00,